<?xml version="1.0" encoding="UTF-8" standalone="no" ?><gpx xmlns="http://www.topografix.com/GPX/1/1" xmlns:gpxx="http://www.garmin.com/xmlschemas/GpxExtensions/v3" xmlns:wptx1="http://www.garmin.com/xmlschemas/WaypointExtension/v1" xmlns:gpxtpx="http://www.garmin.com/xmlschemas/TrackPointExtension/v1" creator="Dakota 20" version="1.1" xmlns:xsi="http://www.w3.org/2001/XMLSchema-instance" xsi:schemaLocation="http://www.topografix.com/GPX/1/1 http://www.topografix.com/GPX/1/1/gpx.xsd http://www.garmin.com/xmlschemas/GpxExtensions/v3 http://www8.garmin.com/xmlschemas/GpxExtensionsv3.xsd http://www.garmin.com/xmlschemas/WaypointExtension/v1 http://www8.garmin.com/xmlschemas/WaypointExtensionv1.xsd http://www.garmin.com/xmlschemas/TrackPointExtension/v1 http://www.garmin.com/xmlschemas/TrackPointExtensionv1.xsd"><metadata><link href="http://www.garmin.com"><text>Garmin International</text></link><time>2017-09-20T17:15:19Z</time></metadata><trk><name>Current Track: 20 SEP 2017 09:53</name><extensions><gpxx:TrackExtension><gpxx:DisplayColor>Cyan</gpxx:DisplayColor></gpxx:TrackExtension></extensions><trkseg><trkpt lat="51.7924061604" lon="-2.1589955315"><ele>151.54</ele><time>2017-09-20T08:53:05Z</time></trkpt><trkpt lat="51.7923998740" lon="-2.1589984652"><ele>152.03</ele><time>2017-09-20T08:53:22Z</time></trkpt><trkpt lat="51.7923903186" lon="-2.1590171568"><ele>152.51</ele><time>2017-09-20T08:53:45Z</time></trkpt><trkpt lat="51.7923748121" lon="-2.1591937635"><ele>152.51</ele><time>2017-09-20T08:53:59Z</time></trkpt><trkpt lat="51.7924017180" lon="-2.1594613139"><ele>153.47</ele><time>2017-09-20T08:54:18Z</time></trkpt><trkpt lat="51.7924157996" lon="-2.1595682669"><ele>154.43</ele><time>2017-09-20T08:54:25Z</time></trkpt><trkpt lat="51.7924248520" lon="-2.1597183868"><ele>154.43</ele><time>2017-09-20T08:54:43Z</time></trkpt><trkpt lat="51.7924377602" lon="-2.1598641481"><ele>154.91</ele><time>2017-09-20T08:54:56Z</time></trkpt><trkpt lat="51.7924018856" lon="-2.1600099094"><ele>154.43</ele><time>2017-09-20T08:55:06Z</time></trkpt><trkpt lat="51.7924173921" lon="-2.1601387393"><ele>154.91</ele><time>2017-09-20T08:55:16Z</time></trkpt><trkpt lat="51.7924244329" lon="-2.1601570118"><ele>155.87</ele><time>2017-09-20T08:55:18Z</time></trkpt><trkpt lat="51.7924667615" lon="-2.1601908747"><ele>155.87</ele><time>2017-09-20T08:55:35Z</time></trkpt><trkpt lat="51.7925274465" lon="-2.1601238195"><ele>155.87</ele><time>2017-09-20T08:55:51Z</time></trkpt><trkpt lat="51.7925565317" lon="-2.1601601131"><ele>157.31</ele><time>2017-09-20T08:56:12Z</time></trkpt><trkpt lat="51.7925965134" lon="-2.1603096463"><ele>156.35</ele><time>2017-09-20T08:56:20Z</time></trkpt><trkpt lat="51.7926269397" lon="-2.1604020987"><ele>155.87</ele><time>2017-09-20T08:56:24Z</time></trkpt><trkpt lat="51.7926321365" lon="-2.1604173537"><ele>154.91</ele><time>2017-09-20T08:56:25Z</time></trkpt><trkpt lat="51.7926412728" lon="-2.1604453493"><ele>156.35</ele><time>2017-09-20T08:56:27Z</time></trkpt><trkpt lat="51.7926553544" lon="-2.1604927909"><ele>156.83</ele><time>2017-09-20T08:56:30Z</time></trkpt><trkpt lat="51.7926813383" lon="-2.1605865844"><ele>157.31</ele><time>2017-09-20T08:56:35Z</time></trkpt><trkpt lat="51.7926991917" lon="-2.1606722474"><ele>156.83</ele><time>2017-09-20T08:56:40Z</time></trkpt><trkpt lat="51.7927074060" lon="-2.1606988180"><ele>159.72</ele><time>2017-09-20T08:56:41Z</time></trkpt><trkpt lat="51.7927178834" lon="-2.1607325133"><ele>158.75</ele><time>2017-09-20T08:56:43Z</time></trkpt><trkpt lat="51.7927456275" lon="-2.1608267259"><ele>158.27</ele><time>2017-09-20T08:56:47Z</time></trkpt><trkpt lat="51.7927520815" lon="-2.1608489379"><ele>156.35</ele><time>2017-09-20T08:56:48Z</time></trkpt><trkpt lat="51.7927879561" lon="-2.1608939487"><ele>160.20</ele><time>2017-09-20T08:56:53Z</time></trkpt><trkpt lat="51.7928312905" lon="-2.1608710662"><ele>157.79</ele><time>2017-09-20T08:57:02Z</time></trkpt><trkpt lat="51.7928367388" lon="-2.1608614270"><ele>160.68</ele><time>2017-09-20T08:57:04Z</time></trkpt><trkpt lat="51.7929493077" lon="-2.1607459243"><ele>160.68</ele><time>2017-09-20T08:57:21Z</time></trkpt><trkpt lat="51.7930547521" lon="-2.1607118100"><ele>161.16</ele><time>2017-09-20T08:57:41Z</time></trkpt><trkpt lat="51.7931020260" lon="-2.1605855785"><ele>161.16</ele><time>2017-09-20T08:57:58Z</time></trkpt><trkpt lat="51.7932373099" lon="-2.1606397256"><ele>159.72</ele><time>2017-09-20T08:58:19Z</time></trkpt><trkpt lat="51.7932496313" lon="-2.1606022585"><ele>161.16</ele><time>2017-09-20T08:58:23Z</time></trkpt><trkpt lat="51.7932291795" lon="-2.1604678128"><ele>158.27</ele><time>2017-09-20T08:58:42Z</time></trkpt><trkpt lat="51.7932763696" lon="-2.1604746021"><ele>156.35</ele><time>2017-09-20T08:58:53Z</time></trkpt><trkpt lat="51.7933633737" lon="-2.1604006737"><ele>156.35</ele><time>2017-09-20T08:58:58Z</time></trkpt><trkpt lat="51.7935888469" lon="-2.1604883485"><ele>156.83</ele><time>2017-09-20T08:59:14Z</time></trkpt><trkpt lat="51.7938072793" lon="-2.1605752688"><ele>158.27</ele><time>2017-09-20T08:59:35Z</time></trkpt><trkpt lat="51.7940247059" lon="-2.1605452616"><ele>159.24</ele><time>2017-09-20T08:59:54Z</time></trkpt><trkpt lat="51.7941959482" lon="-2.1603958122"><ele>162.12</ele><time>2017-09-20T09:00:11Z</time></trkpt><trkpt lat="51.7943401169" lon="-2.1601841692"><ele>163.08</ele><time>2017-09-20T09:00:31Z</time></trkpt><trkpt lat="51.7944592237" lon="-2.1599752922"><ele>165.48</ele><time>2017-09-20T09:00:51Z</time></trkpt><trkpt lat="51.7945909873" lon="-2.1598592866"><ele>167.41</ele><time>2017-09-20T09:01:08Z</time></trkpt><trkpt lat="51.7945639137" lon="-2.1598019544"><ele>165.00</ele><time>2017-09-20T09:01:19Z</time></trkpt><trkpt lat="51.7945306376" lon="-2.1597375814"><ele>165.48</ele><time>2017-09-20T09:01:24Z</time></trkpt><trkpt lat="51.7945233453" lon="-2.1597218234"><ele>162.60</ele><time>2017-09-20T09:01:25Z</time></trkpt><trkpt lat="51.7945171427" lon="-2.1597105917"><ele>169.33</ele><time>2017-09-20T09:01:26Z</time></trkpt><trkpt lat="51.7944927514" lon="-2.1596568637"><ele>167.41</ele><time>2017-09-20T09:01:37Z</time></trkpt><trkpt lat="51.7944932543" lon="-2.1596459672"><ele>170.77</ele><time>2017-09-20T09:01:38Z</time></trkpt><trkpt lat="51.7944930866" lon="-2.1596377529"><ele>173.66</ele><time>2017-09-20T09:01:39Z</time></trkpt><trkpt lat="51.7945027258" lon="-2.1596294548"><ele>167.41</ele><time>2017-09-20T09:01:40Z</time></trkpt><trkpt lat="51.7945103534" lon="-2.1596272755"><ele>170.77</ele><time>2017-09-20T09:01:41Z</time></trkpt><trkpt lat="51.7945825215" lon="-2.1595958434"><ele>169.81</ele><time>2017-09-20T09:01:50Z</time></trkpt><trkpt lat="51.7945918255" lon="-2.1595936641"><ele>173.17</ele><time>2017-09-20T09:01:51Z</time></trkpt><trkpt lat="51.7946012970" lon="-2.1595931612"><ele>173.17</ele><time>2017-09-20T09:01:52Z</time></trkpt><trkpt lat="51.7948229145" lon="-2.1596452128"><ele>169.33</ele><time>2017-09-20T09:02:08Z</time></trkpt><trkpt lat="51.7948439531" lon="-2.1596316341"><ele>173.17</ele><time>2017-09-20T09:02:09Z</time></trkpt><trkpt lat="51.7948747147" lon="-2.1596209891"><ele>169.33</ele><time>2017-09-20T09:02:11Z</time></trkpt><trkpt lat="51.7948748823" lon="-2.1596211568"><ele>174.14</ele><time>2017-09-20T09:02:12Z</time></trkpt><trkpt lat="51.7949078232" lon="-2.1596104279"><ele>173.66</ele><time>2017-09-20T09:02:16Z</time></trkpt><trkpt lat="51.7949189711" lon="-2.1596394293"><ele>174.62</ele><time>2017-09-20T09:02:36Z</time></trkpt><trkpt lat="51.7949768063" lon="-2.1595566161"><ele>175.58</ele><time>2017-09-20T09:02:54Z</time></trkpt><trkpt lat="51.7949783988" lon="-2.1595478151"><ele>175.58</ele><time>2017-09-20T09:03:12Z</time></trkpt><trkpt lat="51.7949476372" lon="-2.1594556980"><ele>175.10</ele><time>2017-09-20T09:03:31Z</time></trkpt><trkpt lat="51.7949573603" lon="-2.1594739705"><ele>176.06</ele><time>2017-09-20T09:04:00Z</time></trkpt><trkpt lat="51.7949678376" lon="-2.1595380083"><ele>176.54</ele><time>2017-09-20T09:04:05Z</time></trkpt><trkpt lat="51.7950825859" lon="-2.1594034787"><ele>177.98</ele><time>2017-09-20T09:04:22Z</time></trkpt><trkpt lat="51.7950959969" lon="-2.1593753155"><ele>175.10</ele><time>2017-09-20T09:04:29Z</time></trkpt><trkpt lat="51.7950908840" lon="-2.1593737230"><ele>176.54</ele><time>2017-09-20T09:04:31Z</time></trkpt><trkpt lat="51.7951234896" lon="-2.1591803525"><ele>180.38</ele><time>2017-09-20T09:04:52Z</time></trkpt><trkpt lat="51.7951318715" lon="-2.1590869781"><ele>181.83</ele><time>2017-09-20T09:05:10Z</time></trkpt><trkpt lat="51.7951190472" lon="-2.1589350142"><ele>185.19</ele><time>2017-09-20T09:05:29Z</time></trkpt><trkpt lat="51.7951229867" lon="-2.1589344274"><ele>189.04</ele><time>2017-09-20T09:05:39Z</time></trkpt><trkpt lat="51.7951234896" lon="-2.1589344274"><ele>184.71</ele><time>2017-09-20T09:05:40Z</time></trkpt><trkpt lat="51.7951322068" lon="-2.1589364391"><ele>186.63</ele><time>2017-09-20T09:05:49Z</time></trkpt><trkpt lat="51.7951676622" lon="-2.1589471679"><ele>183.27</ele><time>2017-09-20T09:05:52Z</time></trkpt><trkpt lat="51.7952009384" lon="-2.1589644346"><ele>187.11</ele><time>2017-09-20T09:05:54Z</time></trkpt><trkpt lat="51.7952166963" lon="-2.1589705534"><ele>187.11</ele><time>2017-09-20T09:05:55Z</time></trkpt><trkpt lat="51.7952676583" lon="-2.1589907538"><ele>188.08</ele><time>2017-09-20T09:06:03Z</time></trkpt><trkpt lat="51.7953254096" lon="-2.1589051746"><ele>190.00</ele><time>2017-09-20T09:06:23Z</time></trkpt><trkpt lat="51.7953684926" lon="-2.1588442381"><ele>191.92</ele><time>2017-09-20T09:06:40Z</time></trkpt><trkpt lat="51.7953733541" lon="-2.1588097885"><ele>192.40</ele><time>2017-09-20T09:06:44Z</time></trkpt><trkpt lat="51.7954079714" lon="-2.1587822959"><ele>195.77</ele><time>2017-09-20T09:07:03Z</time></trkpt><trkpt lat="51.7954705842" lon="-2.1587651968"><ele>197.69</ele><time>2017-09-20T09:07:10Z</time></trkpt><trkpt lat="51.7955704965" lon="-2.1587663703"><ele>198.65</ele><time>2017-09-20T09:07:16Z</time></trkpt><trkpt lat="51.7956366297" lon="-2.1587460022"><ele>199.13</ele><time>2017-09-20T09:07:22Z</time></trkpt><trkpt lat="51.7956568301" lon="-2.1587335970"><ele>200.57</ele><time>2017-09-20T09:07:24Z</time></trkpt><trkpt lat="51.7957147490" lon="-2.1587484330"><ele>201.53</ele><time>2017-09-20T09:07:44Z</time></trkpt><trkpt lat="51.7957291659" lon="-2.1587765124"><ele>201.05</ele><time>2017-09-20T09:08:05Z</time></trkpt><trkpt lat="51.7957579996" lon="-2.1587850619"><ele>200.57</ele><time>2017-09-20T09:08:28Z</time></trkpt><trkpt lat="51.7957954668" lon="-2.1587774344"><ele>200.57</ele><time>2017-09-20T09:08:48Z</time></trkpt><trkpt lat="51.7958395556" lon="-2.1587468404"><ele>200.57</ele><time>2017-09-20T09:09:06Z</time></trkpt><trkpt lat="51.7957402300" lon="-2.1587830503"><ele>200.57</ele><time>2017-09-20T09:09:27Z</time></trkpt><trkpt lat="51.7957454268" lon="-2.1588286478"><ele>200.57</ele><time>2017-09-20T09:09:52Z</time></trkpt><trkpt lat="51.7957378831" lon="-2.1588142309"><ele>200.57</ele><time>2017-09-20T09:09:58Z</time></trkpt><trkpt lat="51.7957155034" lon="-2.1588101238"><ele>200.57</ele><time>2017-09-20T09:10:00Z</time></trkpt><trkpt lat="51.7956944648" lon="-2.1589144785"><ele>201.05</ele><time>2017-09-20T09:10:19Z</time></trkpt><trkpt lat="51.7958801240" lon="-2.1588806994"><ele>204.42</ele><time>2017-09-20T09:10:37Z</time></trkpt><trkpt lat="51.7958993185" lon="-2.1590713877"><ele>203.94</ele><time>2017-09-20T09:10:55Z</time></trkpt><trkpt lat="51.7959230393" lon="-2.1590987965"><ele>207.30</ele><time>2017-09-20T09:11:08Z</time></trkpt><trkpt lat="51.7960341834" lon="-2.1592091024"><ele>206.82</ele><time>2017-09-20T09:11:29Z</time></trkpt><trkpt lat="51.7961827945" lon="-2.1592353377"><ele>205.86</ele><time>2017-09-20T09:11:45Z</time></trkpt><trkpt lat="51.7961855605" lon="-2.1592490003"><ele>206.82</ele><time>2017-09-20T09:11:47Z</time></trkpt><trkpt lat="51.7962252907" lon="-2.1594549436"><ele>205.38</ele><time>2017-09-20T09:12:08Z</time></trkpt><trkpt lat="51.7962262966" lon="-2.1595282014"><ele>207.30</ele><time>2017-09-20T09:12:16Z</time></trkpt><trkpt lat="51.7962337565" lon="-2.1597916447"><ele>207.78</ele><time>2017-09-20T09:12:34Z</time></trkpt><trkpt lat="51.7963285558" lon="-2.1598320454"><ele>208.26</ele><time>2017-09-20T09:12:53Z</time></trkpt><trkpt lat="51.7964714672" lon="-2.1601326205"><ele>208.74</ele><time>2017-09-20T09:13:13Z</time></trkpt><trkpt lat="51.7965293024" lon="-2.1602020226"><ele>208.26</ele><time>2017-09-20T09:13:27Z</time></trkpt><trkpt lat="51.7967327312" lon="-2.1602399927"><ele>207.78</ele><time>2017-09-20T09:13:48Z</time></trkpt><trkpt lat="51.7966426257" lon="-2.1603913698"><ele>207.30</ele><time>2017-09-20T09:14:06Z</time></trkpt><trkpt lat="51.7964725569" lon="-2.1606013365"><ele>207.30</ele><time>2017-09-20T09:14:32Z</time></trkpt><trkpt lat="51.7964186613" lon="-2.1606378816"><ele>207.78</ele><time>2017-09-20T09:14:52Z</time></trkpt><trkpt lat="51.7965783365" lon="-2.1604730934"><ele>208.74</ele><time>2017-09-20T09:15:12Z</time></trkpt><trkpt lat="51.7967235949" lon="-2.1603208780"><ele>209.22</ele><time>2017-09-20T09:15:32Z</time></trkpt><trkpt lat="51.7967212480" lon="-2.1604619455"><ele>209.22</ele><time>2017-09-20T09:15:39Z</time></trkpt><trkpt lat="51.7967828549" lon="-2.1607136540"><ele>209.22</ele><time>2017-09-20T09:15:58Z</time></trkpt><trkpt lat="51.7967909016" lon="-2.1610390395"><ele>207.30</ele><time>2017-09-20T09:16:20Z</time></trkpt><trkpt lat="51.7967552785" lon="-2.1610257123"><ele>207.78</ele><time>2017-09-20T09:16:42Z</time></trkpt><trkpt lat="51.7967033107" lon="-2.1610946953"><ele>207.78</ele><time>2017-09-20T09:17:01Z</time></trkpt><trkpt lat="51.7966480739" lon="-2.1612348408"><ele>206.34</ele><time>2017-09-20T09:17:25Z</time></trkpt><trkpt lat="51.7966561206" lon="-2.1612381097"><ele>206.34</ele><time>2017-09-20T09:17:26Z</time></trkpt><trkpt lat="51.7967695277" lon="-2.1612039953"><ele>206.34</ele><time>2017-09-20T09:17:46Z</time></trkpt><trkpt lat="51.7967991997" lon="-2.1612515207"><ele>206.34</ele><time>2017-09-20T09:18:05Z</time></trkpt><trkpt lat="51.7969128583" lon="-2.1612619981"><ele>203.94</ele><time>2017-09-20T09:18:24Z</time></trkpt><trkpt lat="51.7969417758" lon="-2.1613938455"><ele>202.49</ele><time>2017-09-20T09:18:43Z</time></trkpt><trkpt lat="51.7968559451" lon="-2.1611321624"><ele>202.49</ele><time>2017-09-20T09:18:58Z</time></trkpt><trkpt lat="51.7968739662" lon="-2.1612181608"><ele>200.57</ele><time>2017-09-20T09:19:21Z</time></trkpt><trkpt lat="51.7969411053" lon="-2.1613785066"><ele>199.13</ele><time>2017-09-20T09:19:43Z</time></trkpt><trkpt lat="51.7969038058" lon="-2.1614039876"><ele>198.17</ele><time>2017-09-20T09:20:06Z</time></trkpt><trkpt lat="51.7969758064" lon="-2.1616955101"><ele>196.25</ele><time>2017-09-20T09:20:26Z</time></trkpt><trkpt lat="51.7969356570" lon="-2.1620248351"><ele>198.65</ele><time>2017-09-20T09:20:46Z</time></trkpt><trkpt lat="51.7969529238" lon="-2.1621244121"><ele>198.65</ele><time>2017-09-20T09:21:02Z</time></trkpt><trkpt lat="51.7970037181" lon="-2.1623382345"><ele>200.09</ele><time>2017-09-20T09:21:26Z</time></trkpt><trkpt lat="51.7970777303" lon="-2.1624658909"><ele>200.57</ele><time>2017-09-20T09:21:47Z</time></trkpt><trkpt lat="51.7971294466" lon="-2.1626034379"><ele>201.53</ele><time>2017-09-20T09:21:57Z</time></trkpt><trkpt lat="51.7971296143" lon="-2.1626510471"><ele>201.05</ele><time>2017-09-20T09:22:00Z</time></trkpt><trkpt lat="51.7970507406" lon="-2.1627241373"><ele>200.57</ele><time>2017-09-20T09:22:12Z</time></trkpt><trkpt lat="51.7970442027" lon="-2.1627652925"><ele>201.05</ele><time>2017-09-20T09:22:33Z</time></trkpt><trkpt lat="51.7970617209" lon="-2.1627036855"><ele>201.05</ele><time>2017-09-20T09:22:58Z</time></trkpt><trkpt lat="51.7971162032" lon="-2.1627359558"><ele>201.05</ele><time>2017-09-20T09:23:18Z</time></trkpt><trkpt lat="51.7972126789" lon="-2.1629484370"><ele>203.94</ele><time>2017-09-20T09:23:35Z</time></trkpt><trkpt lat="51.7972910497" lon="-2.1630461700"><ele>205.86</ele><time>2017-09-20T09:23:54Z</time></trkpt><trkpt lat="51.7972940672" lon="-2.1630206052"><ele>205.86</ele><time>2017-09-20T09:24:20Z</time></trkpt><trkpt lat="51.7973439395" lon="-2.1627891809"><ele>206.82</ele><time>2017-09-20T09:24:38Z</time></trkpt><trkpt lat="51.7973848432" lon="-2.1626784559"><ele>207.78</ele><time>2017-09-20T09:24:49Z</time></trkpt><trkpt lat="51.7975268327" lon="-2.1624860913"><ele>209.70</ele><time>2017-09-20T09:25:08Z</time></trkpt><trkpt lat="51.7975442670" lon="-2.1623753663"><ele>210.67</ele><time>2017-09-20T09:25:27Z</time></trkpt><trkpt lat="51.7975218873" lon="-2.1623321157"><ele>211.15</ele><time>2017-09-20T09:25:45Z</time></trkpt><trkpt lat="51.7974827439" lon="-2.1622866858"><ele>211.15</ele><time>2017-09-20T09:25:52Z</time></trkpt><trkpt lat="51.7974893656" lon="-2.1621042956"><ele>214.03</ele><time>2017-09-20T09:26:00Z</time></trkpt><trkpt lat="51.7975503858" lon="-2.1619483083"><ele>213.07</ele><time>2017-09-20T09:26:19Z</time></trkpt><trkpt lat="51.7975642160" lon="-2.1618168801"><ele>216.43</ele><time>2017-09-20T09:26:29Z</time></trkpt><trkpt lat="51.7975767050" lon="-2.1617090050"><ele>216.91</ele><time>2017-09-20T09:26:45Z</time></trkpt><trkpt lat="51.7976082209" lon="-2.1615306381"><ele>218.36</ele><time>2017-09-20T09:27:06Z</time></trkpt><trkpt lat="51.7975917924" lon="-2.1613251977"><ele>219.80</ele><time>2017-09-20T09:27:27Z</time></trkpt><trkpt lat="51.7975725140" lon="-2.1611946914"><ele>220.28</ele><time>2017-09-20T09:27:45Z</time></trkpt><trkpt lat="51.7976228893" lon="-2.1610737406"><ele>223.64</ele><time>2017-09-20T09:28:03Z</time></trkpt><trkpt lat="51.7976644635" lon="-2.1609449945"><ele>223.64</ele><time>2017-09-20T09:28:20Z</time></trkpt><trkpt lat="51.7976741865" lon="-2.1608843934"><ele>224.12</ele><time>2017-09-20T09:28:40Z</time></trkpt><trkpt lat="51.7976720911" lon="-2.1608783584"><ele>223.64</ele><time>2017-09-20T09:28:49Z</time></trkpt><trkpt lat="51.7976532318" lon="-2.1609801985"><ele>224.12</ele><time>2017-09-20T09:29:10Z</time></trkpt><trkpt lat="51.7977077980" lon="-2.1606114786"><ele>226.53</ele><time>2017-09-20T09:29:30Z</time></trkpt><trkpt lat="51.7977264896" lon="-2.1603642963"><ele>229.41</ele><time>2017-09-20T09:29:45Z</time></trkpt><trkpt lat="51.7977323569" lon="-2.1601943951"><ele>231.33</ele><time>2017-09-20T09:30:06Z</time></trkpt><trkpt lat="51.7977299262" lon="-2.1601048764"><ele>233.26</ele><time>2017-09-20T09:30:29Z</time></trkpt><trkpt lat="51.7976839934" lon="-2.1599309519"><ele>234.22</ele><time>2017-09-20T09:30:46Z</time></trkpt><trkpt lat="51.7976578418" lon="-2.1597644873"><ele>235.66</ele><time>2017-09-20T09:31:05Z</time></trkpt><trkpt lat="51.7975782137" lon="-2.1595682669"><ele>238.06</ele><time>2017-09-20T09:31:26Z</time></trkpt><trkpt lat="51.7975456920" lon="-2.1594018023"><ele>242.87</ele><time>2017-09-20T09:31:42Z</time></trkpt><trkpt lat="51.7975469492" lon="-2.1593997907"><ele>239.02</ele><time>2017-09-20T09:31:43Z</time></trkpt><trkpt lat="51.7975636292" lon="-2.1593433805"><ele>239.99</ele><time>2017-09-20T09:31:50Z</time></trkpt><trkpt lat="51.7975104880" lon="-2.1589840483"><ele>240.95</ele><time>2017-09-20T09:32:10Z</time></trkpt><trkpt lat="51.7975279223" lon="-2.1587510314"><ele>242.87</ele><time>2017-09-20T09:32:23Z</time></trkpt><trkpt lat="51.7975306045" lon="-2.1585794538"><ele>244.79</ele><time>2017-09-20T09:32:41Z</time></trkpt><trkpt lat="51.7975599412" lon="-2.1584695671"><ele>245.75</ele><time>2017-09-20T09:33:00Z</time></trkpt><trkpt lat="51.7975596897" lon="-2.1584826428"><ele>245.75</ele><time>2017-09-20T09:33:27Z</time></trkpt><trkpt lat="51.7975435965" lon="-2.1584849060"><ele>245.27</ele><time>2017-09-20T09:33:55Z</time></trkpt><trkpt lat="51.7975257430" lon="-2.1584998257"><ele>245.27</ele><time>2017-09-20T09:34:13Z</time></trkpt><trkpt lat="51.7975157686" lon="-2.1585020889"><ele>245.27</ele><time>2017-09-20T09:34:39Z</time></trkpt><trkpt lat="51.7974867672" lon="-2.1584209520"><ele>244.79</ele><time>2017-09-20T09:35:00Z</time></trkpt><trkpt lat="51.7974667344" lon="-2.1583813895"><ele>244.31</ele><time>2017-09-20T09:35:20Z</time></trkpt><trkpt lat="51.7972819973" lon="-2.1580793895"><ele>244.31</ele><time>2017-09-20T09:35:39Z</time></trkpt><trkpt lat="51.7971812468" lon="-2.1579697542"><ele>243.83</ele><time>2017-09-20T09:35:56Z</time></trkpt><trkpt lat="51.7970676720" lon="-2.1577239130"><ele>242.39</ele><time>2017-09-20T09:36:16Z</time></trkpt><trkpt lat="51.7969806679" lon="-2.1574178059"><ele>241.91</ele><time>2017-09-20T09:36:38Z</time></trkpt><trkpt lat="51.7968768999" lon="-2.1572003793"><ele>241.43</ele><time>2017-09-20T09:36:56Z</time></trkpt><trkpt lat="51.7967592180" lon="-2.1570013929"><ele>239.99</ele><time>2017-09-20T09:37:16Z</time></trkpt><trkpt lat="51.7967158835" lon="-2.1569126286"><ele>239.02</ele><time>2017-09-20T09:37:34Z</time></trkpt><trkpt lat="51.7965699546" lon="-2.1565990616"><ele>239.02</ele><time>2017-09-20T09:37:52Z</time></trkpt><trkpt lat="51.7964894883" lon="-2.1564521268"><ele>235.66</ele><time>2017-09-20T09:38:08Z</time></trkpt><trkpt lat="51.7964324914" lon="-2.1563764382"><ele>234.70</ele><time>2017-09-20T09:38:27Z</time></trkpt><trkpt lat="51.7963747401" lon="-2.1562995762"><ele>234.22</ele><time>2017-09-20T09:38:48Z</time></trkpt><trkpt lat="51.7962227762" lon="-2.1562008373"><ele>233.26</ele><time>2017-09-20T09:39:11Z</time></trkpt><trkpt lat="51.7961620074" lon="-2.1560727619"><ele>233.26</ele><time>2017-09-20T09:39:33Z</time></trkpt><trkpt lat="51.7960058525" lon="-2.1554773953"><ele>232.78</ele><time>2017-09-20T09:39:54Z</time></trkpt><trkpt lat="51.7959736660" lon="-2.1554191411"><ele>231.81</ele><time>2017-09-20T09:40:15Z</time></trkpt><trkpt lat="51.7959942855" lon="-2.1554471366"><ele>231.33</ele><time>2017-09-20T09:40:37Z</time></trkpt><trkpt lat="51.7959869932" lon="-2.1554515790"><ele>234.70</ele><time>2017-09-20T09:40:58Z</time></trkpt><trkpt lat="51.7959860712" lon="-2.1554486454"><ele>231.33</ele><time>2017-09-20T09:41:04Z</time></trkpt><trkpt lat="51.7959161662" lon="-2.1554949135"><ele>229.89</ele><time>2017-09-20T09:41:24Z</time></trkpt><trkpt lat="51.7957590055" lon="-2.1554512437"><ele>228.45</ele><time>2017-09-20T09:41:42Z</time></trkpt><trkpt lat="51.7957362067" lon="-2.1554388385"><ele>228.93</ele><time>2017-09-20T09:41:51Z</time></trkpt><trkpt lat="51.7955461890" lon="-2.1552965138"><ele>226.05</ele><time>2017-09-20T09:42:09Z</time></trkpt><trkpt lat="51.7954962328" lon="-2.1553369984"><ele>224.12</ele><time>2017-09-20T09:42:36Z</time></trkpt><trkpt lat="51.7955067102" lon="-2.1553257667"><ele>223.64</ele><time>2017-09-20T09:43:00Z</time></trkpt><trkpt lat="51.7954524793" lon="-2.1553229168"><ele>222.68</ele><time>2017-09-20T09:43:19Z</time></trkpt><trkpt lat="51.7954330333" lon="-2.1553820930"><ele>222.68</ele><time>2017-09-20T09:43:35Z</time></trkpt><trkpt lat="51.7953645531" lon="-2.1554284450"><ele>220.76</ele><time>2017-09-20T09:43:52Z</time></trkpt><trkpt lat="51.7952795606" lon="-2.1554688457"><ele>219.32</ele><time>2017-09-20T09:44:11Z</time></trkpt><trkpt lat="51.7952386569" lon="-2.1553672571"><ele>219.32</ele><time>2017-09-20T09:44:31Z</time></trkpt><trkpt lat="51.7952213064" lon="-2.1553784050"><ele>218.84</ele><time>2017-09-20T09:44:48Z</time></trkpt><trkpt lat="51.7952446081" lon="-2.1553877927"><ele>219.32</ele><time>2017-09-20T09:45:10Z</time></trkpt><trkpt lat="51.7952213902" lon="-2.1553385071"><ele>218.84</ele><time>2017-09-20T09:45:26Z</time></trkpt><trkpt lat="51.7952235695" lon="-2.1553375013"><ele>217.40</ele><time>2017-09-20T09:45:49Z</time></trkpt><trkpt lat="51.7952261679" lon="-2.1553395968"><ele>218.36</ele><time>2017-09-20T09:46:12Z</time></trkpt><trkpt lat="51.7952341307" lon="-2.1553829312"><ele>218.84</ele><time>2017-09-20T09:46:32Z</time></trkpt><trkpt lat="51.7952333763" lon="-2.1553816739"><ele>212.59</ele><time>2017-09-20T09:46:41Z</time></trkpt><trkpt lat="51.7952287663" lon="-2.1553832665"><ele>221.24</ele><time>2017-09-20T09:46:42Z</time></trkpt><trkpt lat="51.7952241562" lon="-2.1553861164"><ele>220.28</ele><time>2017-09-20T09:46:43Z</time></trkpt><trkpt lat="51.7952167802" lon="-2.1553832665"><ele>218.36</ele><time>2017-09-20T09:46:45Z</time></trkpt><trkpt lat="51.7952101585" lon="-2.1553516667"><ele>218.36</ele><time>2017-09-20T09:46:57Z</time></trkpt><trkpt lat="51.7952239886" lon="-2.1554008685"><ele>217.88</ele><time>2017-09-20T09:47:10Z</time></trkpt><trkpt lat="51.7952255812" lon="-2.1554196440"><ele>218.36</ele><time>2017-09-20T09:47:26Z</time></trkpt><trkpt lat="51.7952222284" lon="-2.1554509085"><ele>218.84</ele><time>2017-09-20T09:47:43Z</time></trkpt><trkpt lat="51.7952091526" lon="-2.1553794108"><ele>222.20</ele><time>2017-09-20T09:47:52Z</time></trkpt><trkpt lat="51.7952075601" lon="-2.1553748008"><ele>218.36</ele><time>2017-09-20T09:47:53Z</time></trkpt><trkpt lat="51.7952021956" lon="-2.1553256828"><ele>217.88</ele><time>2017-09-20T09:48:09Z</time></trkpt><trkpt lat="51.7952060513" lon="-2.1553240903"><ele>217.88</ele><time>2017-09-20T09:48:34Z</time></trkpt><trkpt lat="51.7952139303" lon="-2.1553064045"><ele>218.36</ele><time>2017-09-20T09:48:58Z</time></trkpt><trkpt lat="51.7952110805" lon="-2.1553271078"><ele>218.36</ele><time>2017-09-20T09:49:23Z</time></trkpt><trkpt lat="51.7952077277" lon="-2.1553334780"><ele>218.36</ele><time>2017-09-20T09:49:56Z</time></trkpt><trkpt lat="51.7952223122" lon="-2.1553124394"><ele>218.36</ele><time>2017-09-20T09:50:24Z</time></trkpt><trkpt lat="51.7952212226" lon="-2.1553159598"><ele>218.36</ele><time>2017-09-20T09:50:52Z</time></trkpt><trkpt lat="51.7952196300" lon="-2.1553077456"><ele>218.36</ele><time>2017-09-20T09:51:14Z</time></trkpt><trkpt lat="51.7952215578" lon="-2.1553136129"><ele>218.36</ele><time>2017-09-20T09:51:37Z</time></trkpt><trkpt lat="51.7952254973" lon="-2.1553121042"><ele>218.84</ele><time>2017-09-20T09:52:03Z</time></trkpt><trkpt lat="51.7952274252" lon="-2.1553051472"><ele>218.36</ele><time>2017-09-20T09:52:34Z</time></trkpt><trkpt lat="51.7952285986" lon="-2.1553044766"><ele>217.88</ele><time>2017-09-20T09:53:05Z</time></trkpt><trkpt lat="51.7952291854" lon="-2.1553024650"><ele>217.40</ele><time>2017-09-20T09:53:34Z</time></trkpt><trkpt lat="51.7952224799" lon="-2.1553058177"><ele>217.88</ele><time>2017-09-20T09:53:57Z</time></trkpt><trkpt lat="51.7952212226" lon="-2.1553091705"><ele>217.88</ele><time>2017-09-20T09:54:15Z</time></trkpt><trkpt lat="51.7952230666" lon="-2.1553077456"><ele>217.40</ele><time>2017-09-20T09:54:46Z</time></trkpt><trkpt lat="51.7952264193" lon="-2.1553045604"><ele>217.88</ele><time>2017-09-20T09:55:11Z</time></trkpt><trkpt lat="51.7952279281" lon="-2.1552953403"><ele>217.40</ele><time>2017-09-20T09:55:39Z</time></trkpt><trkpt lat="51.7952288501" lon="-2.1552858688"><ele>218.36</ele><time>2017-09-20T09:56:09Z</time></trkpt><trkpt lat="51.7952283472" lon="-2.1552779898"><ele>218.36</ele><time>2017-09-20T09:56:35Z</time></trkpt><trkpt lat="51.7952290177" lon="-2.1552723739"><ele>217.88</ele><time>2017-09-20T09:57:03Z</time></trkpt><trkpt lat="51.7952328734" lon="-2.1552597173"><ele>218.36</ele><time>2017-09-20T09:57:31Z</time></trkpt><trkpt lat="51.7952380702" lon="-2.1552582085"><ele>217.88</ele><time>2017-09-20T09:57:58Z</time></trkpt><trkpt lat="51.7952394113" lon="-2.1552499104"><ele>217.88</ele><time>2017-09-20T09:58:28Z</time></trkpt><trkpt lat="51.7952558398" lon="-2.1552537661"><ele>217.40</ele><time>2017-09-20T09:58:55Z</time></trkpt><trkpt lat="51.7952494696" lon="-2.1552580409"><ele>217.88</ele><time>2017-09-20T09:59:30Z</time></trkpt><trkpt lat="51.7952526547" lon="-2.1552587952"><ele>217.40</ele><time>2017-09-20T09:59:56Z</time></trkpt><trkpt lat="51.7952459492" lon="-2.1552563645"><ele>217.40</ele><time>2017-09-20T10:00:23Z</time></trkpt><trkpt lat="51.7952401657" lon="-2.1552590467"><ele>216.91</ele><time>2017-09-20T10:00:49Z</time></trkpt><trkpt lat="51.7952458654" lon="-2.1552731283"><ele>217.88</ele><time>2017-09-20T10:01:17Z</time></trkpt><trkpt lat="51.7952477094" lon="-2.1552794147"><ele>216.91</ele><time>2017-09-20T10:01:43Z</time></trkpt><trkpt lat="51.7952454463" lon="-2.1552876290"><ele>217.88</ele><time>2017-09-20T10:02:09Z</time></trkpt><trkpt lat="51.7952467036" lon="-2.1552907303"><ele>217.88</ele><time>2017-09-20T10:02:42Z</time></trkpt><trkpt lat="51.7952441890" lon="-2.1552864555"><ele>217.88</ele><time>2017-09-20T10:03:08Z</time></trkpt><trkpt lat="51.7952398304" lon="-2.1552792471"><ele>217.88</ele><time>2017-09-20T10:03:34Z</time></trkpt><trkpt lat="51.7952424288" lon="-2.1552870423"><ele>218.36</ele><time>2017-09-20T10:03:55Z</time></trkpt><trkpt lat="51.7952764593" lon="-2.1553349867"><ele>217.88</ele><time>2017-09-20T10:04:07Z</time></trkpt><trkpt lat="51.7952685803" lon="-2.1553570312"><ele>218.84</ele><time>2017-09-20T10:04:31Z</time></trkpt><trkpt lat="51.7952651437" lon="-2.1553618088"><ele>218.84</ele><time>2017-09-20T10:04:53Z</time></trkpt><trkpt lat="51.7952671554" lon="-2.1553672571"><ele>218.36</ele><time>2017-09-20T10:05:27Z</time></trkpt><trkpt lat="51.7952640541" lon="-2.1553730406"><ele>218.84</ele><time>2017-09-20T10:06:00Z</time></trkpt><trkpt lat="51.7952617910" lon="-2.1553745493"><ele>215.47</ele><time>2017-09-20T10:06:17Z</time></trkpt><trkpt lat="51.7952596117" lon="-2.1553685144"><ele>221.72</ele><time>2017-09-20T10:06:18Z</time></trkpt><trkpt lat="51.7952581868" lon="-2.1553613897"><ele>214.99</ele><time>2017-09-20T10:06:19Z</time></trkpt><trkpt lat="51.7952572647" lon="-2.1553546842"><ele>220.28</ele><time>2017-09-20T10:06:20Z</time></trkpt><trkpt lat="51.7952448595" lon="-2.1553307120"><ele>215.95</ele><time>2017-09-20T10:06:31Z</time></trkpt><trkpt lat="51.7952427641" lon="-2.1553240065"><ele>220.28</ele><time>2017-09-20T10:06:32Z</time></trkpt><trkpt lat="51.7952399142" lon="-2.1553174686"><ele>216.43</ele><time>2017-09-20T10:06:33Z</time></trkpt><trkpt lat="51.7952141818" lon="-2.1552783251"><ele>219.80</ele><time>2017-09-20T10:06:46Z</time></trkpt><trkpt lat="51.7952090688" lon="-2.1552696917"><ele>216.43</ele><time>2017-09-20T10:06:47Z</time></trkpt><trkpt lat="51.7951351404" lon="-2.1551642474"><ele>220.76</ele><time>2017-09-20T10:06:58Z</time></trkpt><trkpt lat="51.7951283511" lon="-2.1551593859"><ele>216.43</ele><time>2017-09-20T10:06:59Z</time></trkpt><trkpt lat="51.7951030377" lon="-2.1551321447"><ele>217.40</ele><time>2017-09-20T10:07:03Z</time></trkpt><trkpt lat="51.7950539198" lon="-2.1550717950"><ele>214.99</ele><time>2017-09-20T10:07:12Z</time></trkpt><trkpt lat="51.7950503994" lon="-2.1550680231"><ele>219.32</ele><time>2017-09-20T10:07:13Z</time></trkpt><trkpt lat="51.7950468790" lon="-2.1550639998"><ele>214.51</ele><time>2017-09-20T10:07:14Z</time></trkpt><trkpt lat="51.7950353958" lon="-2.1550579648"><ele>217.88</ele><time>2017-09-20T10:07:16Z</time></trkpt><trkpt lat="51.7950042151" lon="-2.1550676879"><ele>214.03</ele><time>2017-09-20T10:07:31Z</time></trkpt><trkpt lat="51.7949983478" lon="-2.1550698671"><ele>217.40</ele><time>2017-09-20T10:07:32Z</time></trkpt><trkpt lat="51.7949885409" lon="-2.1550672688"><ele>209.70</ele><time>2017-09-20T10:07:39Z</time></trkpt><trkpt lat="51.7949883733" lon="-2.1550665982"><ele>221.24</ele><time>2017-09-20T10:07:40Z</time></trkpt><trkpt lat="51.7949868646" lon="-2.1550650895"><ele>214.03</ele><time>2017-09-20T10:07:41Z</time></trkpt><trkpt lat="51.7949852720" lon="-2.1550622396"><ele>215.95</ele><time>2017-09-20T10:07:45Z</time></trkpt><trkpt lat="51.7949782312" lon="-2.1550501697"><ele>214.99</ele><time>2017-09-20T10:08:20Z</time></trkpt><trkpt lat="51.7949777283" lon="-2.1550482418"><ele>219.80</ele><time>2017-09-20T10:08:34Z</time></trkpt><trkpt lat="51.7949783988" lon="-2.1550499182"><ele>211.63</ele><time>2017-09-20T10:08:36Z</time></trkpt><trkpt lat="51.7949788179" lon="-2.1550503373"><ele>215.95</ele><time>2017-09-20T10:08:37Z</time></trkpt><trkpt lat="51.7949788179" lon="-2.1550500020"><ele>216.91</ele><time>2017-09-20T10:08:39Z</time></trkpt><trkpt lat="51.7949788179" lon="-2.1550567076"><ele>215.95</ele><time>2017-09-20T10:08:52Z</time></trkpt><trkpt lat="51.7949209828" lon="-2.1550590545"><ele>216.43</ele><time>2017-09-20T10:09:07Z</time></trkpt><trkpt lat="51.7949023750" lon="-2.1550502535"><ele>213.07</ele><time>2017-09-20T10:09:10Z</time></trkpt><trkpt lat="51.7948950827" lon="-2.1550412849"><ele>213.55</ele><time>2017-09-20T10:09:11Z</time></trkpt><trkpt lat="51.7948938254" lon="-2.1550403628"><ele>215.95</ele><time>2017-09-20T10:09:13Z</time></trkpt><trkpt lat="51.7948856112" lon="-2.1550246049"><ele>218.84</ele><time>2017-09-20T10:09:24Z</time></trkpt><trkpt lat="51.7948837671" lon="-2.1550242696"><ele>214.51</ele><time>2017-09-20T10:09:25Z</time></trkpt><trkpt lat="51.7948741280" lon="-2.1550247725"><ele>215.95</ele><time>2017-09-20T10:09:49Z</time></trkpt><trkpt lat="51.7948730383" lon="-2.1550312266"><ele>216.43</ele><time>2017-09-20T10:10:11Z</time></trkpt><trkpt lat="51.7948267702" lon="-2.1550259460"><ele>215.47</ele><time>2017-09-20T10:10:20Z</time></trkpt><trkpt lat="51.7947181407" lon="-2.1550067514"><ele>214.99</ele><time>2017-09-20T10:10:31Z</time></trkpt><trkpt lat="51.7945753131" lon="-2.1550310589"><ele>214.03</ele><time>2017-09-20T10:10:46Z</time></trkpt><trkpt lat="51.7944655102" lon="-2.1550240181"><ele>212.59</ele><time>2017-09-20T10:11:00Z</time></trkpt><trkpt lat="51.7944147997" lon="-2.1549845394"><ele>212.11</ele><time>2017-09-20T10:11:13Z</time></trkpt><trkpt lat="51.7944179848" lon="-2.1549930051"><ele>211.63</ele><time>2017-09-20T10:11:34Z</time></trkpt><trkpt lat="51.7944002151" lon="-2.1550056618"><ele>211.15</ele><time>2017-09-20T10:11:56Z</time></trkpt><trkpt lat="51.7943367641" lon="-2.1551531833"><ele>211.63</ele><time>2017-09-20T10:12:10Z</time></trkpt><trkpt lat="51.7942853831" lon="-2.1552973520"><ele>210.67</ele><time>2017-09-20T10:12:26Z</time></trkpt><trkpt lat="51.7942380253" lon="-2.1554438677"><ele>208.74</ele><time>2017-09-20T10:12:40Z</time></trkpt><trkpt lat="51.7941791005" lon="-2.1556271799"><ele>208.74</ele><time>2017-09-20T10:12:55Z</time></trkpt><trkpt lat="51.7941664439" lon="-2.1556748729"><ele>208.74</ele><time>2017-09-20T10:12:59Z</time></trkpt><trkpt lat="51.7941355985" lon="-2.1558083966"><ele>207.30</ele><time>2017-09-20T10:13:11Z</time></trkpt><trkpt lat="51.7941003107" lon="-2.1560025215"><ele>207.30</ele><time>2017-09-20T10:13:26Z</time></trkpt><trkpt lat="51.7940698843" lon="-2.1562258154"><ele>205.86</ele><time>2017-09-20T10:13:42Z</time></trkpt><trkpt lat="51.7940448225" lon="-2.1563710738"><ele>205.38</ele><time>2017-09-20T10:13:54Z</time></trkpt><trkpt lat="51.7940140609" lon="-2.1565470099"><ele>204.42</ele><time>2017-09-20T10:14:09Z</time></trkpt><trkpt lat="51.7940039188" lon="-2.1566060185"><ele>202.49</ele><time>2017-09-20T10:14:24Z</time></trkpt><trkpt lat="51.7940091155" lon="-2.1566096228"><ele>203.46</ele><time>2017-09-20T10:14:49Z</time></trkpt><trkpt lat="51.7940062657" lon="-2.1566171665"><ele>195.77</ele><time>2017-09-20T10:14:54Z</time></trkpt><trkpt lat="51.7940060142" lon="-2.1566175018"><ele>213.55</ele><time>2017-09-20T10:14:55Z</time></trkpt><trkpt lat="51.7940021586" lon="-2.1566210221"><ele>202.49</ele><time>2017-09-20T10:14:56Z</time></trkpt><trkpt lat="51.7939996440" lon="-2.1566421445"><ele>202.49</ele><time>2017-09-20T10:14:58Z</time></trkpt><trkpt lat="51.7939677928" lon="-2.1567189228"><ele>201.05</ele><time>2017-09-20T10:15:11Z</time></trkpt><trkpt lat="51.7939270567" lon="-2.1566781029"><ele>201.53</ele><time>2017-09-20T10:15:28Z</time></trkpt><trkpt lat="51.7938822135" lon="-2.1565093752"><ele>200.09</ele><time>2017-09-20T10:15:44Z</time></trkpt><trkpt lat="51.7938346043" lon="-2.1563357022"><ele>198.17</ele><time>2017-09-20T10:15:59Z</time></trkpt><trkpt lat="51.7937874142" lon="-2.1561278310"><ele>198.17</ele><time>2017-09-20T10:16:16Z</time></trkpt><trkpt lat="51.7937861569" lon="-2.1561150067"><ele>197.21</ele><time>2017-09-20T10:16:17Z</time></trkpt><trkpt lat="51.7937687226" lon="-2.1559215523"><ele>196.25</ele><time>2017-09-20T10:16:33Z</time></trkpt><trkpt lat="51.7937681358" lon="-2.1556953248"><ele>194.80</ele><time>2017-09-20T10:16:51Z</time></trkpt><trkpt lat="51.7937666271" lon="-2.1555462107"><ele>193.84</ele><time>2017-09-20T10:17:03Z</time></trkpt><trkpt lat="51.7937449180" lon="-2.1553063206"><ele>192.40</ele><time>2017-09-20T10:17:20Z</time></trkpt><trkpt lat="51.7937253043" lon="-2.1551163029"><ele>192.88</ele><time>2017-09-20T10:17:35Z</time></trkpt><trkpt lat="51.7937299982" lon="-2.1550638322"><ele>191.92</ele><time>2017-09-20T10:17:39Z</time></trkpt><trkpt lat="51.7937294953" lon="-2.1550345793"><ele>192.88</ele><time>2017-09-20T10:17:41Z</time></trkpt><trkpt lat="51.7937073670" lon="-2.1548754908"><ele>191.44</ele><time>2017-09-20T10:17:53Z</time></trkpt><trkpt lat="51.7936935369" lon="-2.1548251156"><ele>190.48</ele><time>2017-09-20T10:17:57Z</time></trkpt><trkpt lat="51.7936582491" lon="-2.1546639316"><ele>191.44</ele><time>2017-09-20T10:18:09Z</time></trkpt><trkpt lat="51.7936540581" lon="-2.1546378639"><ele>190.48</ele><time>2017-09-20T10:18:11Z</time></trkpt><trkpt lat="51.7936193570" lon="-2.1545141470"><ele>189.04</ele><time>2017-09-20T10:18:24Z</time></trkpt><trkpt lat="51.7935890984" lon="-2.1543002408"><ele>187.59</ele><time>2017-09-20T10:18:41Z</time></trkpt><trkpt lat="51.7935612705" lon="-2.1540787071"><ele>185.19</ele><time>2017-09-20T10:18:58Z</time></trkpt><trkpt lat="51.7935602646" lon="-2.1539630368"><ele>184.23</ele><time>2017-09-20T10:19:07Z</time></trkpt><trkpt lat="51.7935165949" lon="-2.1538214665"><ele>183.27</ele><time>2017-09-20T10:19:21Z</time></trkpt><trkpt lat="51.7934658006" lon="-2.1537225600"><ele>181.83</ele><time>2017-09-20T10:19:35Z</time></trkpt><trkpt lat="51.7934220470" lon="-2.1536017768"><ele>179.90</ele><time>2017-09-20T10:19:53Z</time></trkpt><trkpt lat="51.7934076302" lon="-2.1535323747"><ele>178.94</ele><time>2017-09-20T10:20:11Z</time></trkpt><trkpt lat="51.7934000026" lon="-2.1535159461"><ele>178.46</ele><time>2017-09-20T10:20:31Z</time></trkpt><trkpt lat="51.7933454365" lon="-2.1533882059"><ele>177.50</ele><time>2017-09-20T10:20:48Z</time></trkpt><trkpt lat="51.7932922114" lon="-2.1532793250"><ele>176.06</ele><time>2017-09-20T10:21:03Z</time></trkpt><trkpt lat="51.7932483740" lon="-2.1531202365"><ele>174.14</ele><time>2017-09-20T10:21:18Z</time></trkpt><trkpt lat="51.7932052910" lon="-2.1529502515"><ele>172.21</ele><time>2017-09-20T10:21:35Z</time></trkpt><trkpt lat="51.7931664828" lon="-2.1528079268"><ele>170.29</ele><time>2017-09-20T10:21:53Z</time></trkpt><trkpt lat="51.7931358889" lon="-2.1526044142"><ele>169.81</ele><time>2017-09-20T10:22:07Z</time></trkpt><trkpt lat="51.7931336258" lon="-2.1523806173"><ele>168.37</ele><time>2017-09-20T10:22:22Z</time></trkpt><trkpt lat="51.7931583524" lon="-2.1522861533"><ele>168.37</ele><time>2017-09-20T10:22:30Z</time></trkpt><trkpt lat="51.7931617051" lon="-2.1522620972"><ele>166.45</ele><time>2017-09-20T10:22:32Z</time></trkpt><trkpt lat="51.7931745294" lon="-2.1521006618"><ele>166.93</ele><time>2017-09-20T10:22:45Z</time></trkpt><trkpt lat="51.7931705061" lon="-2.1520999912"><ele>166.45</ele><time>2017-09-20T10:23:01Z</time></trkpt><trkpt lat="51.7931559216" lon="-2.1520403959"><ele>166.45</ele><time>2017-09-20T10:23:20Z</time></trkpt><trkpt lat="51.7931577656" lon="-2.1519538108"><ele>163.56</ele><time>2017-09-20T10:23:43Z</time></trkpt><trkpt lat="51.7931610346" lon="-2.1518663038"><ele>161.64</ele><time>2017-09-20T10:24:02Z</time></trkpt><trkpt lat="51.7931436002" lon="-2.1517896932"><ele>160.20</ele><time>2017-09-20T10:24:20Z</time></trkpt><trkpt lat="51.7931294348" lon="-2.1516753640"><ele>158.75</ele><time>2017-09-20T10:24:41Z</time></trkpt><trkpt lat="51.7931175325" lon="-2.1516219713"><ele>158.27</ele><time>2017-09-20T10:25:03Z</time></trkpt><trkpt lat="51.7931079771" lon="-2.1515764575"><ele>156.83</ele><time>2017-09-20T10:25:18Z</time></trkpt><trkpt lat="51.7930685822" lon="-2.1515350509"><ele>155.39</ele><time>2017-09-20T10:25:32Z</time></trkpt><trkpt lat="51.7929970007" lon="-2.1514713485"><ele>154.43</ele><time>2017-09-20T10:25:46Z</time></trkpt><trkpt lat="51.7929166183" lon="-2.1513933968"><ele>152.51</ele><time>2017-09-20T10:26:01Z</time></trkpt><trkpt lat="51.7927866988" lon="-2.1512091625"><ele>152.51</ele><time>2017-09-20T10:26:15Z</time></trkpt><trkpt lat="51.7926882114" lon="-2.1511494834"><ele>149.14</ele><time>2017-09-20T10:26:30Z</time></trkpt><trkpt lat="51.7926001176" lon="-2.1510998625"><ele>147.22</ele><time>2017-09-20T10:26:49Z</time></trkpt><trkpt lat="51.7925281171" lon="-2.1511343122"><ele>144.82</ele><time>2017-09-20T10:27:07Z</time></trkpt><trkpt lat="51.7925077491" lon="-2.1511462145"><ele>143.85</ele><time>2017-09-20T10:27:26Z</time></trkpt><trkpt lat="51.7925230879" lon="-2.1511902194"><ele>143.85</ele><time>2017-09-20T10:27:44Z</time></trkpt><trkpt lat="51.7924768198" lon="-2.1512278542"><ele>143.85</ele><time>2017-09-20T10:28:06Z</time></trkpt><trkpt lat="51.7923671845" lon="-2.1512835100"><ele>141.93</ele><time>2017-09-20T10:28:21Z</time></trkpt><trkpt lat="51.7922541127" lon="-2.1514147706"><ele>140.01</ele><time>2017-09-20T10:28:40Z</time></trkpt><trkpt lat="51.7922135442" lon="-2.1514548361"><ele>139.05</ele><time>2017-09-20T10:28:47Z</time></trkpt><trkpt lat="51.7921251152" lon="-2.1515822411"><ele>137.61</ele><time>2017-09-20T10:29:03Z</time></trkpt><trkpt lat="51.7920635082" lon="-2.1517416649"><ele>137.61</ele><time>2017-09-20T10:29:21Z</time></trkpt><trkpt lat="51.7920278013" lon="-2.1518198680"><ele>136.64</ele><time>2017-09-20T10:29:38Z</time></trkpt><trkpt lat="51.7920119595" lon="-2.1518508811"><ele>137.13</ele><time>2017-09-20T10:29:59Z</time></trkpt><trkpt lat="51.7920089420" lon="-2.1518565807"><ele>136.64</ele><time>2017-09-20T10:30:26Z</time></trkpt><trkpt lat="51.7919990513" lon="-2.1518522222"><ele>136.16</ele><time>2017-09-20T10:30:49Z</time></trkpt><trkpt lat="51.7919992190" lon="-2.1518539824"><ele>127.99</ele><time>2017-09-20T10:30:50Z</time></trkpt><trkpt lat="51.7919981293" lon="-2.1518516354"><ele>140.97</ele><time>2017-09-20T10:30:51Z</time></trkpt><trkpt lat="51.7919946928" lon="-2.1518549882"><ele>138.57</ele><time>2017-09-20T10:30:52Z</time></trkpt><trkpt lat="51.7919949442" lon="-2.1518562455"><ele>133.28</ele><time>2017-09-20T10:30:54Z</time></trkpt><trkpt lat="51.7919931840" lon="-2.1518704947"><ele>138.57</ele><time>2017-09-20T10:30:55Z</time></trkpt><trkpt lat="51.7919984646" lon="-2.1519367956"><ele>136.64</ele><time>2017-09-20T10:31:11Z</time></trkpt><trkpt lat="51.7919999734" lon="-2.1519463509"><ele>136.64</ele><time>2017-09-20T10:31:35Z</time></trkpt><trkpt lat="51.7920000572" lon="-2.1519471891"><ele>136.64</ele><time>2017-09-20T10:32:04Z</time></trkpt><trkpt lat="51.7920044158" lon="-2.1519678086"><ele>135.68</ele><time>2017-09-20T10:32:26Z</time></trkpt><trkpt lat="51.7920107022" lon="-2.1520673018"><ele>136.16</ele><time>2017-09-20T10:32:38Z</time></trkpt><trkpt lat="51.7919914238" lon="-2.1523832995"><ele>136.64</ele><time>2017-09-20T10:32:55Z</time></trkpt><trkpt lat="51.7919962853" lon="-2.1523949504"><ele>137.61</ele><time>2017-09-20T10:32:57Z</time></trkpt><trkpt lat="51.7920019850" lon="-2.1524128877"><ele>140.49</ele><time>2017-09-20T10:33:00Z</time></trkpt><trkpt lat="51.7920049187" lon="-2.1524174977"><ele>137.61</ele><time>2017-09-20T10:33:02Z</time></trkpt><trkpt lat="51.7919895798" lon="-2.1524927672"><ele>137.13</ele><time>2017-09-20T10:33:18Z</time></trkpt><trkpt lat="51.7919763364" lon="-2.1526058391"><ele>136.16</ele><time>2017-09-20T10:33:35Z</time></trkpt><trkpt lat="51.7919757497" lon="-2.1526081022"><ele>139.53</ele><time>2017-09-20T10:33:42Z</time></trkpt><trkpt lat="51.7919756658" lon="-2.1526079345"><ele>136.16</ele><time>2017-09-20T10:33:44Z</time></trkpt><trkpt lat="51.7919678707" lon="-2.1525868960"><ele>136.64</ele><time>2017-09-20T10:34:02Z</time></trkpt><trkpt lat="51.7919770908" lon="-2.1525990497"><ele>136.64</ele><time>2017-09-20T10:34:26Z</time></trkpt><trkpt lat="51.7919842992" lon="-2.1526816115"><ele>138.57</ele><time>2017-09-20T10:34:42Z</time></trkpt><trkpt lat="51.7919589859" lon="-2.1528529376"><ele>138.09</ele><time>2017-09-20T10:35:01Z</time></trkpt><trkpt lat="51.7919451557" lon="-2.1531116031"><ele>139.53</ele><time>2017-09-20T10:35:20Z</time></trkpt><trkpt lat="51.7919408809" lon="-2.1532174665"><ele>139.05</ele><time>2017-09-20T10:35:38Z</time></trkpt><trkpt lat="51.7919400427" lon="-2.1534286067"><ele>139.53</ele><time>2017-09-20T10:35:58Z</time></trkpt><trkpt lat="51.7919393722" lon="-2.1535782237"><ele>139.53</ele><time>2017-09-20T10:36:16Z</time></trkpt><trkpt lat="51.7919615842" lon="-2.1536709275"><ele>138.09</ele><time>2017-09-20T10:36:28Z</time></trkpt><trkpt lat="51.7919846345" lon="-2.1536935586"><ele>139.53</ele><time>2017-09-20T10:36:48Z</time></trkpt><trkpt lat="51.7919438146" lon="-2.1537579317"><ele>138.09</ele><time>2017-09-20T10:37:12Z</time></trkpt><trkpt lat="51.7919376120" lon="-2.1537642181"><ele>144.34</ele><time>2017-09-20T10:37:43Z</time></trkpt><trkpt lat="51.7919417191" lon="-2.1537643019"><ele>139.05</ele><time>2017-09-20T10:37:44Z</time></trkpt><trkpt lat="51.7919451557" lon="-2.1537633799"><ele>142.89</ele><time>2017-09-20T10:37:45Z</time></trkpt><trkpt lat="51.7919501010" lon="-2.1537715942"><ele>134.72</ele><time>2017-09-20T10:37:48Z</time></trkpt><trkpt lat="51.7919502687" lon="-2.1537719294"><ele>137.61</ele><time>2017-09-20T10:37:49Z</time></trkpt><trkpt lat="51.7919504363" lon="-2.1537720971"><ele>154.43</ele><time>2017-09-20T10:37:50Z</time></trkpt><trkpt lat="51.7919507716" lon="-2.1537725162"><ele>148.18</ele><time>2017-09-20T10:37:51Z</time></trkpt><trkpt lat="51.7919510230" lon="-2.1537731867"><ele>135.20</ele><time>2017-09-20T10:37:52Z</time></trkpt><trkpt lat="51.7919515260" lon="-2.1537749469"><ele>139.53</ele><time>2017-09-20T10:37:53Z</time></trkpt><trkpt lat="51.7919466645" lon="-2.1538118273"><ele>139.05</ele><time>2017-09-20T10:37:57Z</time></trkpt><trkpt lat="51.7918863147" lon="-2.1539745200"><ele>138.09</ele><time>2017-09-20T10:38:11Z</time></trkpt><trkpt lat="51.7918600794" lon="-2.1541333571"><ele>137.61</ele><time>2017-09-20T10:38:21Z</time></trkpt><trkpt lat="51.7918342631" lon="-2.1543802042"><ele>138.09</ele><time>2017-09-20T10:38:37Z</time></trkpt><trkpt lat="51.7918202654" lon="-2.1545598283"><ele>134.72</ele><time>2017-09-20T10:38:51Z</time></trkpt><trkpt lat="51.7917929403" lon="-2.1547218505"><ele>136.64</ele><time>2017-09-20T10:38:59Z</time></trkpt><trkpt lat="51.7917876597" lon="-2.1548916679"><ele>135.68</ele><time>2017-09-20T10:39:12Z</time></trkpt><trkpt lat="51.7917930242" lon="-2.1550366748"><ele>135.20</ele><time>2017-09-20T10:39:25Z</time></trkpt><trkpt lat="51.7917998973" lon="-2.1550406143"><ele>134.72</ele><time>2017-09-20T10:39:49Z</time></trkpt><trkpt lat="51.7918093689" lon="-2.1550898999"><ele>134.72</ele><time>2017-09-20T10:40:18Z</time></trkpt><trkpt lat="51.7918129731" lon="-2.1550805960"><ele>133.28</ele><time>2017-09-20T10:40:43Z</time></trkpt><trkpt lat="51.7918133084" lon="-2.1550786681"><ele>137.13</ele><time>2017-09-20T10:40:45Z</time></trkpt><trkpt lat="51.7918112129" lon="-2.1550740581"><ele>126.55</ele><time>2017-09-20T10:40:47Z</time></trkpt><trkpt lat="51.7918111291" lon="-2.1550731361"><ele>141.93</ele><time>2017-09-20T10:40:48Z</time></trkpt><trkpt lat="51.7918111291" lon="-2.1550729685"><ele>135.20</ele><time>2017-09-20T10:40:49Z</time></trkpt><trkpt lat="51.7918192595" lon="-2.1550905704"><ele>131.36</ele><time>2017-09-20T10:41:02Z</time></trkpt><trkpt lat="51.7918190919" lon="-2.1550901514"><ele>134.24</ele><time>2017-09-20T10:41:03Z</time></trkpt><trkpt lat="51.7917793617" lon="-2.1551138721"><ele>133.28</ele><time>2017-09-20T10:41:09Z</time></trkpt><trkpt lat="51.7916659545" lon="-2.1552354097"><ele>133.28</ele><time>2017-09-20T10:41:30Z</time></trkpt><trkpt lat="51.7915932834" lon="-2.1552931610"><ele>133.28</ele><time>2017-09-20T10:41:49Z</time></trkpt><trkpt lat="51.7915435787" lon="-2.1554172132"><ele>133.28</ele><time>2017-09-20T10:42:10Z</time></trkpt><trkpt lat="51.7913756892" lon="-2.1555746254"><ele>130.40</ele><time>2017-09-20T10:42:31Z</time></trkpt><trkpt lat="51.7913225479" lon="-2.1556659043"><ele>129.43</ele><time>2017-09-20T10:42:49Z</time></trkpt><trkpt lat="51.7912876792" lon="-2.1556322090"><ele>128.95</ele><time>2017-09-20T10:43:06Z</time></trkpt><trkpt lat="51.7912146728" lon="-2.1555831749"><ele>130.40</ele><time>2017-09-20T10:43:24Z</time></trkpt><trkpt lat="51.7912088055" lon="-2.1555795707"><ele>133.28</ele><time>2017-09-20T10:43:35Z</time></trkpt><trkpt lat="51.7912007589" lon="-2.1555786487"><ele>129.43</ele><time>2017-09-20T10:43:36Z</time></trkpt><trkpt lat="51.7911691591" lon="-2.1555704344"><ele>130.40</ele><time>2017-09-20T10:43:49Z</time></trkpt><trkpt lat="51.7911505513" lon="-2.1555658244"><ele>127.51</ele><time>2017-09-20T10:43:58Z</time></trkpt><trkpt lat="51.7911421694" lon="-2.1555654053"><ele>130.40</ele><time>2017-09-20T10:43:59Z</time></trkpt><trkpt lat="51.7910214700" lon="-2.1555591188"><ele>131.84</ele><time>2017-09-20T10:44:15Z</time></trkpt><trkpt lat="51.7910244875" lon="-2.1555600408"><ele>132.32</ele><time>2017-09-20T10:44:42Z</time></trkpt><trkpt lat="51.7910246551" lon="-2.1555601247"><ele>132.32</ele><time>2017-09-20T10:45:05Z</time></trkpt><trkpt lat="51.7909751181" lon="-2.1555532515"><ele>135.20</ele><time>2017-09-20T10:45:22Z</time></trkpt><trkpt lat="51.7909715977" lon="-2.1555548441"><ele>131.36</ele><time>2017-09-20T10:45:24Z</time></trkpt><trkpt lat="51.7909712624" lon="-2.1555544250"><ele>135.68</ele><time>2017-09-20T10:45:25Z</time></trkpt><trkpt lat="51.7909567617" lon="-2.1555531677"><ele>131.36</ele><time>2017-09-20T10:45:29Z</time></trkpt><trkpt lat="51.7909503914" lon="-2.1555525810"><ele>136.64</ele><time>2017-09-20T10:45:30Z</time></trkpt><trkpt lat="51.7909419257" lon="-2.1555523295"><ele>133.28</ele><time>2017-09-20T10:45:31Z</time></trkpt><trkpt lat="51.7908990942" lon="-2.1555425227"><ele>137.61</ele><time>2017-09-20T10:45:38Z</time></trkpt><trkpt lat="51.7908876948" lon="-2.1555325482"><ele>136.16</ele><time>2017-09-20T10:45:39Z</time></trkpt><trkpt lat="51.7908451986" lon="-2.1555850189"><ele>136.64</ele><time>2017-09-20T10:45:58Z</time></trkpt><trkpt lat="51.7907919735" lon="-2.1556019504"><ele>140.01</ele><time>2017-09-20T10:46:14Z</time></trkpt><trkpt lat="51.7907851841" lon="-2.1556064766"><ele>135.20</ele><time>2017-09-20T10:46:15Z</time></trkpt><trkpt lat="51.7907794844" lon="-2.1556121763"><ele>138.57</ele><time>2017-09-20T10:46:16Z</time></trkpt><trkpt lat="51.7907554284" lon="-2.1556666587"><ele>141.45</ele><time>2017-09-20T10:46:35Z</time></trkpt><trkpt lat="51.7907468788" lon="-2.1556670777"><ele>136.16</ele><time>2017-09-20T10:46:36Z</time></trkpt><trkpt lat="51.7907389160" lon="-2.1556659043"><ele>139.53</ele><time>2017-09-20T10:46:37Z</time></trkpt><trkpt lat="51.7907294445" lon="-2.1556634735"><ele>138.57</ele><time>2017-09-20T10:46:38Z</time></trkpt><trkpt lat="51.7907104176" lon="-2.1556528285"><ele>136.64</ele><time>2017-09-20T10:46:40Z</time></trkpt><trkpt lat="51.7907011975" lon="-2.1556482185"><ele>140.01</ele><time>2017-09-20T10:46:41Z</time></trkpt><trkpt lat="51.7906226590" lon="-2.1556485537"><ele>140.49</ele><time>2017-09-20T10:46:49Z</time></trkpt><trkpt lat="51.7905857787" lon="-2.1556754597"><ele>141.45</ele><time>2017-09-20T10:46:54Z</time></trkpt><trkpt lat="51.7905668356" lon="-2.1556913015"><ele>142.41</ele><time>2017-09-20T10:46:56Z</time></trkpt><trkpt lat="51.7905271892" lon="-2.1557604522"><ele>139.05</ele><time>2017-09-20T10:47:07Z</time></trkpt><trkpt lat="51.7905264348" lon="-2.1557609551"><ele>143.37</ele><time>2017-09-20T10:47:08Z</time></trkpt><trkpt lat="51.7905355711" lon="-2.1557850111"><ele>140.97</ele><time>2017-09-20T10:47:27Z</time></trkpt><trkpt lat="51.7905365769" lon="-2.1557816584"><ele>141.45</ele><time>2017-09-20T10:47:47Z</time></trkpt><trkpt lat="51.7905349843" lon="-2.1557798143"><ele>141.93</ele><time>2017-09-20T10:47:49Z</time></trkpt><trkpt lat="51.7905385885" lon="-2.1557700075"><ele>140.49</ele><time>2017-09-20T10:48:10Z</time></trkpt><trkpt lat="51.7905307934" lon="-2.1557641402"><ele>136.16</ele><time>2017-09-20T10:48:28Z</time></trkpt><trkpt lat="51.7905302905" lon="-2.1557640564"><ele>143.37</ele><time>2017-09-20T10:48:29Z</time></trkpt><trkpt lat="51.7905259319" lon="-2.1557602845"><ele>140.01</ele><time>2017-09-20T10:48:39Z</time></trkpt><trkpt lat="51.7905249260" lon="-2.1557586920"><ele>141.45</ele><time>2017-09-20T10:48:44Z</time></trkpt><trkpt lat="51.7905254290" lon="-2.1557583567"><ele>141.45</ele><time>2017-09-20T10:48:49Z</time></trkpt><trkpt lat="51.7905214895" lon="-2.1557618771"><ele>137.13</ele><time>2017-09-20T10:48:57Z</time></trkpt><trkpt lat="51.7905212380" lon="-2.1557617094"><ele>141.45</ele><time>2017-09-20T10:48:58Z</time></trkpt><trkpt lat="51.7904778197" lon="-2.1556668263"><ele>139.53</ele><time>2017-09-20T10:49:16Z</time></trkpt><trkpt lat="51.7904738802" lon="-2.1556646470"><ele>142.41</ele><time>2017-09-20T10:49:17Z</time></trkpt><trkpt lat="51.7904146202" lon="-2.1555550117"><ele>143.37</ele><time>2017-09-20T10:49:36Z</time></trkpt><trkpt lat="51.7904113512" lon="-2.1555381641"><ele>143.37</ele><time>2017-09-20T10:49:45Z</time></trkpt><trkpt lat="51.7903577071" lon="-2.1554750483"><ele>147.22</ele><time>2017-09-20T10:50:01Z</time></trkpt><trkpt lat="51.7902990337" lon="-2.1554052271"><ele>143.85</ele><time>2017-09-20T10:50:10Z</time></trkpt><trkpt lat="51.7902880535" lon="-2.1553663351"><ele>147.70</ele><time>2017-09-20T10:50:14Z</time></trkpt><trkpt lat="51.7902360018" lon="-2.1551934164"><ele>148.66</ele><time>2017-09-20T10:50:20Z</time></trkpt><trkpt lat="51.7901839502" lon="-2.1551005449"><ele>147.70</ele><time>2017-09-20T10:50:26Z</time></trkpt><trkpt lat="51.7901405320" lon="-2.1549917478"><ele>146.74</ele><time>2017-09-20T10:50:40Z</time></trkpt><trkpt lat="51.7900843732" lon="-2.1549310628"><ele>146.26</ele><time>2017-09-20T10:50:57Z</time></trkpt><trkpt lat="51.7900500912" lon="-2.1548067592"><ele>146.26</ele><time>2017-09-20T10:51:16Z</time></trkpt><trkpt lat="51.7900233530" lon="-2.1547619998"><ele>145.78</ele><time>2017-09-20T10:51:37Z</time></trkpt><trkpt lat="51.7900413740" lon="-2.1547514386"><ele>145.78</ele><time>2017-09-20T10:52:08Z</time></trkpt><trkpt lat="51.7900353391" lon="-2.1547309030"><ele>140.97</ele><time>2017-09-20T10:52:34Z</time></trkpt><trkpt lat="51.7900355905" lon="-2.1547306515"><ele>150.10</ele><time>2017-09-20T10:52:35Z</time></trkpt><trkpt lat="51.7900358420" lon="-2.1547307353"><ele>146.26</ele><time>2017-09-20T10:52:36Z</time></trkpt><trkpt lat="51.7900360096" lon="-2.1547308192"><ele>141.93</ele><time>2017-09-20T10:52:38Z</time></trkpt><trkpt lat="51.7900365964" lon="-2.1547320765"><ele>151.06</ele><time>2017-09-20T10:52:39Z</time></trkpt><trkpt lat="51.7900376860" lon="-2.1547338367"><ele>143.37</ele><time>2017-09-20T10:52:40Z</time></trkpt><trkpt lat="51.7900455650" lon="-2.1547387820"><ele>158.75</ele><time>2017-09-20T10:52:41Z</time></trkpt><trkpt lat="51.7900459841" lon="-2.1547392011"><ele>146.26</ele><time>2017-09-20T10:52:42Z</time></trkpt><trkpt lat="51.7900399491" lon="-2.1547039971"><ele>146.74</ele><time>2017-09-20T10:52:55Z</time></trkpt><trkpt lat="51.7900073435" lon="-2.1545797773"><ele>147.70</ele><time>2017-09-20T10:53:06Z</time></trkpt><trkpt lat="51.7899825331" lon="-2.1545139793"><ele>148.66</ele><time>2017-09-20T10:53:23Z</time></trkpt><trkpt lat="51.7899777554" lon="-2.1545095369"><ele>144.34</ele><time>2017-09-20T10:53:35Z</time></trkpt><trkpt lat="51.7899764981" lon="-2.1545079444"><ele>147.22</ele><time>2017-09-20T10:53:36Z</time></trkpt><trkpt lat="51.7899738159" lon="-2.1544918511"><ele>151.06</ele><time>2017-09-20T10:53:37Z</time></trkpt><trkpt lat="51.7899703793" lon="-2.1544743329"><ele>149.14</ele><time>2017-09-20T10:53:38Z</time></trkpt><trkpt lat="51.7899512686" lon="-2.1544230357"><ele>150.58</ele><time>2017-09-20T10:53:45Z</time></trkpt><trkpt lat="51.7899366003" lon="-2.1543962136"><ele>156.35</ele><time>2017-09-20T10:53:48Z</time></trkpt><trkpt lat="51.7899320740" lon="-2.1543868259"><ele>146.74</ele><time>2017-09-20T10:53:49Z</time></trkpt><trkpt lat="51.7899308167" lon="-2.1543813776"><ele>151.06</ele><time>2017-09-20T10:53:50Z</time></trkpt><trkpt lat="51.7899314873" lon="-2.1543667093"><ele>153.95</ele><time>2017-09-20T10:53:54Z</time></trkpt><trkpt lat="51.7899320740" lon="-2.1543666255"><ele>148.66</ele><time>2017-09-20T10:53:55Z</time></trkpt><trkpt lat="51.7899323255" lon="-2.1543660387"><ele>152.51</ele><time>2017-09-20T10:53:56Z</time></trkpt><trkpt lat="51.7899328284" lon="-2.1543655358"><ele>153.47</ele><time>2017-09-20T10:53:58Z</time></trkpt><trkpt lat="51.7899307329" lon="-2.1543566510"><ele>152.51</ele><time>2017-09-20T10:54:15Z</time></trkpt><trkpt lat="51.7899298109" lon="-2.1543686371"><ele>152.51</ele><time>2017-09-20T10:54:35Z</time></trkpt><trkpt lat="51.7899727263" lon="-2.1544045955"><ele>152.03</ele><time>2017-09-20T10:55:03Z</time></trkpt><trkpt lat="51.7899680324" lon="-2.1544061881"><ele>152.51</ele><time>2017-09-20T10:55:23Z</time></trkpt><trkpt lat="51.7899101973" lon="-2.1544969641"><ele>151.54</ele><time>2017-09-20T10:55:45Z</time></trkpt><trkpt lat="51.7898908351" lon="-2.1545374487"><ele>151.54</ele><time>2017-09-20T10:56:04Z</time></trkpt><trkpt lat="51.7898716405" lon="-2.1546997223"><ele>151.06</ele><time>2017-09-20T10:56:28Z</time></trkpt><trkpt lat="51.7898682877" lon="-2.1549945977"><ele>153.95</ele><time>2017-09-20T10:56:46Z</time></trkpt><trkpt lat="51.7898635939" lon="-2.1551730484"><ele>154.91</ele><time>2017-09-20T10:57:01Z</time></trkpt><trkpt lat="51.7897849716" lon="-2.1553587075"><ele>155.87</ele><time>2017-09-20T10:57:15Z</time></trkpt><trkpt lat="51.7896889150" lon="-2.1555540059"><ele>154.43</ele><time>2017-09-20T10:57:28Z</time></trkpt><trkpt lat="51.7896020785" lon="-2.1556659881"><ele>153.95</ele><time>2017-09-20T10:57:42Z</time></trkpt><trkpt lat="51.7895014118" lon="-2.1557182074"><ele>152.51</ele><time>2017-09-20T10:57:56Z</time></trkpt><trkpt lat="51.7894384637" lon="-2.1557189617"><ele>152.99</ele><time>2017-09-20T10:58:12Z</time></trkpt><trkpt lat="51.7893797904" lon="-2.1557723545"><ele>152.99</ele><time>2017-09-20T10:58:33Z</time></trkpt><trkpt lat="51.7893596739" lon="-2.1557859331"><ele>152.99</ele><time>2017-09-20T10:58:55Z</time></trkpt><trkpt lat="51.7893180158" lon="-2.1557876933"><ele>153.95</ele><time>2017-09-20T10:59:10Z</time></trkpt><trkpt lat="51.7892055307" lon="-2.1556431055"><ele>156.83</ele><time>2017-09-20T10:59:21Z</time></trkpt><trkpt lat="51.7891728412" lon="-2.1556080692"><ele>158.27</ele><time>2017-09-20T10:59:24Z</time></trkpt><trkpt lat="51.7891637888" lon="-2.1556145232"><ele>157.79</ele><time>2017-09-20T10:59:26Z</time></trkpt><trkpt lat="51.7891164310" lon="-2.1556392498"><ele>159.24</ele><time>2017-09-20T10:59:31Z</time></trkpt><trkpt lat="51.7891685665" lon="-2.1557767130"><ele>156.35</ele><time>2017-09-20T10:59:46Z</time></trkpt><trkpt lat="51.7893403117" lon="-2.1559064649"><ele>153.47</ele><time>2017-09-20T11:00:08Z</time></trkpt><trkpt lat="51.7893298343" lon="-2.1559183672"><ele>152.03</ele><time>2017-09-20T11:00:30Z</time></trkpt><trkpt lat="51.7893840652" lon="-2.1560636256"><ele>151.54</ele><time>2017-09-20T11:00:46Z</time></trkpt><trkpt lat="51.7893953808" lon="-2.1561181918"><ele>151.54</ele><time>2017-09-20T11:01:07Z</time></trkpt><trkpt lat="51.7893975601" lon="-2.1561008412"><ele>151.54</ele><time>2017-09-20T11:01:28Z</time></trkpt><trkpt lat="51.7893859092" lon="-2.1561106481"><ele>151.54</ele><time>2017-09-20T11:01:53Z</time></trkpt><trkpt lat="51.7893890105" lon="-2.1561160125"><ele>154.43</ele><time>2017-09-20T11:02:20Z</time></trkpt><trkpt lat="51.7894454207" lon="-2.1562128235"><ele>153.95</ele><time>2017-09-20T11:02:34Z</time></trkpt><trkpt lat="51.7894544732" lon="-2.1563709900"><ele>155.39</ele><time>2017-09-20T11:02:51Z</time></trkpt><trkpt lat="51.7894420680" lon="-2.1564315073"><ele>159.24</ele><time>2017-09-20T11:02:59Z</time></trkpt><trkpt lat="51.7894408945" lon="-2.1564424876"><ele>155.87</ele><time>2017-09-20T11:03:03Z</time></trkpt><trkpt lat="51.7894614302" lon="-2.1566430666"><ele>155.87</ele><time>2017-09-20T11:03:22Z</time></trkpt><trkpt lat="51.7894897610" lon="-2.1567830443"><ele>155.39</ele><time>2017-09-20T11:03:38Z</time></trkpt><trkpt lat="51.7895012442" lon="-2.1568382811"><ele>155.87</ele><time>2017-09-20T11:03:45Z</time></trkpt><trkpt lat="51.7895286530" lon="-2.1570334956"><ele>155.87</ele><time>2017-09-20T11:04:00Z</time></trkpt><trkpt lat="51.7895278148" lon="-2.1570321545"><ele>154.43</ele><time>2017-09-20T11:04:03Z</time></trkpt><trkpt lat="51.7895302456" lon="-2.1570361778"><ele>154.91</ele><time>2017-09-20T11:04:23Z</time></trkpt><trkpt lat="51.7895315029" lon="-2.1570371836"><ele>154.43</ele><time>2017-09-20T11:04:51Z</time></trkpt><trkpt lat="51.7895166669" lon="-2.1571306419"><ele>153.95</ele><time>2017-09-20T11:05:06Z</time></trkpt><trkpt lat="51.7895402201" lon="-2.1571016405"><ele>153.47</ele><time>2017-09-20T11:05:20Z</time></trkpt><trkpt lat="51.7895755079" lon="-2.1571293008"><ele>153.47</ele><time>2017-09-20T11:05:29Z</time></trkpt><trkpt lat="51.7895963788" lon="-2.1571332403"><ele>153.47</ele><time>2017-09-20T11:05:31Z</time></trkpt><trkpt lat="51.7896227818" lon="-2.1571538597"><ele>152.51</ele><time>2017-09-20T11:05:34Z</time></trkpt><trkpt lat="51.7896954529" lon="-2.1571966074"><ele>151.06</ele><time>2017-09-20T11:05:43Z</time></trkpt><trkpt lat="51.7897319980" lon="-2.1572728828"><ele>148.66</ele><time>2017-09-20T11:05:55Z</time></trkpt><trkpt lat="51.7897715606" lon="-2.1573535167"><ele>146.74</ele><time>2017-09-20T11:06:11Z</time></trkpt><trkpt lat="51.7897906713" lon="-2.1573861223"><ele>146.26</ele><time>2017-09-20T11:06:20Z</time></trkpt><trkpt lat="51.7898183316" lon="-2.1574098431"><ele>145.78</ele><time>2017-09-20T11:06:22Z</time></trkpt><trkpt lat="51.7899371032" lon="-2.1576052252"><ele>142.89</ele><time>2017-09-20T11:06:39Z</time></trkpt><trkpt lat="51.7899619974" lon="-2.1578815766"><ele>140.01</ele><time>2017-09-20T11:06:54Z</time></trkpt><trkpt lat="51.7899972852" lon="-2.1580164414"><ele>139.05</ele><time>2017-09-20T11:07:12Z</time></trkpt><trkpt lat="51.7900360096" lon="-2.1581232268"><ele>138.57</ele><time>2017-09-20T11:07:31Z</time></trkpt><trkpt lat="51.7900162283" lon="-2.1581213828"><ele>139.05</ele><time>2017-09-20T11:07:36Z</time></trkpt><trkpt lat="51.7899995483" lon="-2.1581409127"><ele>141.93</ele><time>2017-09-20T11:07:43Z</time></trkpt><trkpt lat="51.7899664398" lon="-2.1581860073"><ele>140.49</ele><time>2017-09-20T11:07:58Z</time></trkpt><trkpt lat="51.7899509333" lon="-2.1582465246"><ele>143.85</ele><time>2017-09-20T11:08:10Z</time></trkpt><trkpt lat="51.7899257876" lon="-2.1582655516"><ele>145.30</ele><time>2017-09-20T11:08:17Z</time></trkpt><trkpt lat="51.7898811959" lon="-2.1582901943"><ele>146.26</ele><time>2017-09-20T11:08:34Z</time></trkpt><trkpt lat="51.7898681201" lon="-2.1582753584"><ele>144.82</ele><time>2017-09-20T11:09:00Z</time></trkpt><trkpt lat="51.7898613308" lon="-2.1582689043"><ele>144.82</ele><time>2017-09-20T11:09:17Z</time></trkpt><trkpt lat="51.7898518592" lon="-2.1582687367"><ele>144.34</ele><time>2017-09-20T11:09:44Z</time></trkpt><trkpt lat="51.7898520268" lon="-2.1582814772"><ele>143.37</ele><time>2017-09-20T11:09:59Z</time></trkpt><trkpt lat="51.7897842173" lon="-2.1582348738"><ele>145.30</ele><time>2017-09-20T11:10:10Z</time></trkpt><trkpt lat="51.7897325847" lon="-2.1582328621"><ele>145.78</ele><time>2017-09-20T11:10:25Z</time></trkpt><trkpt lat="51.7897231970" lon="-2.1582193673"><ele>146.26</ele><time>2017-09-20T11:10:57Z</time></trkpt><trkpt lat="51.7896715645" lon="-2.1582057886"><ele>145.30</ele><time>2017-09-20T11:11:09Z</time></trkpt><trkpt lat="51.7897263821" lon="-2.1581224725"><ele>142.89</ele><time>2017-09-20T11:11:27Z</time></trkpt><trkpt lat="51.7898124643" lon="-2.1579230670"><ele>140.49</ele><time>2017-09-20T11:11:44Z</time></trkpt><trkpt lat="51.7899458203" lon="-2.1580684092"><ele>139.05</ele><time>2017-09-20T11:12:01Z</time></trkpt><trkpt lat="51.7900029849" lon="-2.1581206284"><ele>137.61</ele><time>2017-09-20T11:12:20Z</time></trkpt><trkpt lat="51.7900990415" lon="-2.1582315210"><ele>135.20</ele><time>2017-09-20T11:12:40Z</time></trkpt><trkpt lat="51.7901071720" lon="-2.1582432557"><ele>135.68</ele><time>2017-09-20T11:12:41Z</time></trkpt><trkpt lat="51.7901976965" lon="-2.1584558208"><ele>134.72</ele><time>2017-09-20T11:12:58Z</time></trkpt><trkpt lat="51.7901985347" lon="-2.1585344430"><ele>133.76</ele><time>2017-09-20T11:13:02Z</time></trkpt><trkpt lat="51.7901966907" lon="-2.1587509476"><ele>133.28</ele><time>2017-09-20T11:13:18Z</time></trkpt><trkpt lat="51.7901832797" lon="-2.1589558851"><ele>133.76</ele><time>2017-09-20T11:13:31Z</time></trkpt><trkpt lat="51.7902090959" lon="-2.1590386983"><ele>133.76</ele><time>2017-09-20T11:13:40Z</time></trkpt><trkpt lat="51.7902231775" lon="-2.1591126267"><ele>135.20</ele><time>2017-09-20T11:13:45Z</time></trkpt><trkpt lat="51.7902394384" lon="-2.1593316458"><ele>137.61</ele><time>2017-09-20T11:14:00Z</time></trkpt><trkpt lat="51.7902508378" lon="-2.1595175564"><ele>138.09</ele><time>2017-09-20T11:14:11Z</time></trkpt><trkpt lat="51.7902371753" lon="-2.1595877968"><ele>137.61</ele><time>2017-09-20T11:14:16Z</time></trkpt><trkpt lat="51.7901570443" lon="-2.1596246772"><ele>138.09</ele><time>2017-09-20T11:14:21Z</time></trkpt><trkpt lat="51.7901428789" lon="-2.1596716158"><ele>139.05</ele><time>2017-09-20T11:14:34Z</time></trkpt><trkpt lat="51.7902499158" lon="-2.1597421076"><ele>138.09</ele><time>2017-09-20T11:14:52Z</time></trkpt><trkpt lat="51.7902419530" lon="-2.1597766411"><ele>138.09</ele><time>2017-09-20T11:14:55Z</time></trkpt><trkpt lat="51.7902333196" lon="-2.1598880365"><ele>138.57</ele><time>2017-09-20T11:15:11Z</time></trkpt><trkpt lat="51.7902445514" lon="-2.1599280182"><ele>138.57</ele><time>2017-09-20T11:15:29Z</time></trkpt><trkpt lat="51.7902540229" lon="-2.1599479672"><ele>137.13</ele><time>2017-09-20T11:15:50Z</time></trkpt><trkpt lat="51.7902525980" lon="-2.1600042935"><ele>139.05</ele><time>2017-09-20T11:15:56Z</time></trkpt><trkpt lat="51.7902580462" lon="-2.1600650623"><ele>139.53</ele><time>2017-09-20T11:16:00Z</time></trkpt><trkpt lat="51.7902759835" lon="-2.1602062136"><ele>140.01</ele><time>2017-09-20T11:16:14Z</time></trkpt><trkpt lat="51.7902540229" lon="-2.1602965705"><ele>140.49</ele><time>2017-09-20T11:16:29Z</time></trkpt><trkpt lat="51.7902209144" lon="-2.1603954770"><ele>141.93</ele><time>2017-09-20T11:16:41Z</time></trkpt><trkpt lat="51.7902214173" lon="-2.1605012566"><ele>141.45</ele><time>2017-09-20T11:16:52Z</time></trkpt><trkpt lat="51.7902256921" lon="-2.1605250612"><ele>140.49</ele><time>2017-09-20T11:17:09Z</time></trkpt><trkpt lat="51.7902287934" lon="-2.1605839022"><ele>140.49</ele><time>2017-09-20T11:17:21Z</time></trkpt><trkpt lat="51.7902341578" lon="-2.1606999915"><ele>139.53</ele><time>2017-09-20T11:17:29Z</time></trkpt><trkpt lat="51.7902340740" lon="-2.1607877500"><ele>138.09</ele><time>2017-09-20T11:17:34Z</time></trkpt><trkpt lat="51.7902640812" lon="-2.1610391233"><ele>136.16</ele><time>2017-09-20T11:17:50Z</time></trkpt><trkpt lat="51.7903003749" lon="-2.1612432227"><ele>134.24</ele><time>2017-09-20T11:18:04Z</time></trkpt><trkpt lat="51.7903020512" lon="-2.1614362579"><ele>131.84</ele><time>2017-09-20T11:18:20Z</time></trkpt><trkpt lat="51.7902800068" lon="-2.1615805943"><ele>129.92</ele><time>2017-09-20T11:18:34Z</time></trkpt><trkpt lat="51.7902889755" lon="-2.1616033930"><ele>129.43</ele><time>2017-09-20T11:18:36Z</time></trkpt><trkpt lat="51.7903261073" lon="-2.1617467236"><ele>128.95</ele><time>2017-09-20T11:18:49Z</time></trkpt><trkpt lat="51.7903452180" lon="-2.1617793292"><ele>129.92</ele><time>2017-09-20T11:19:12Z</time></trkpt><trkpt lat="51.7903515045" lon="-2.1618333086"><ele>128.95</ele><time>2017-09-20T11:19:16Z</time></trkpt><trkpt lat="51.7903585453" lon="-2.1619203128"><ele>129.92</ele><time>2017-09-20T11:19:22Z</time></trkpt><trkpt lat="51.7903703637" lon="-2.1620132681"><ele>130.40</ele><time>2017-09-20T11:19:28Z</time></trkpt><trkpt lat="51.7903950065" lon="-2.1622275934"><ele>132.32</ele><time>2017-09-20T11:19:43Z</time></trkpt><trkpt lat="51.7904085852" lon="-2.1622712631"><ele>132.32</ele><time>2017-09-20T11:19:46Z</time></trkpt><trkpt lat="51.7904606368" lon="-2.1624891087"><ele>134.72</ele><time>2017-09-20T11:20:01Z</time></trkpt><trkpt lat="51.7904892191" lon="-2.1625418309"><ele>134.24</ele><time>2017-09-20T11:20:17Z</time></trkpt><trkpt lat="51.7904871237" lon="-2.1627311781"><ele>136.16</ele><time>2017-09-20T11:20:30Z</time></trkpt><trkpt lat="51.7904915661" lon="-2.1628973074"><ele>137.13</ele><time>2017-09-20T11:20:46Z</time></trkpt><trkpt lat="51.7905002832" lon="-2.1629099641"><ele>135.68</ele><time>2017-09-20T11:20:48Z</time></trkpt><trkpt lat="51.7905665003" lon="-2.1629286557"><ele>135.68</ele><time>2017-09-20T11:21:08Z</time></trkpt><trkpt lat="51.7905804981" lon="-2.1628895123"><ele>136.16</ele><time>2017-09-20T11:21:19Z</time></trkpt><trkpt lat="51.7904871237" lon="-2.1629057731"><ele>137.61</ele><time>2017-09-20T11:21:31Z</time></trkpt><trkpt lat="51.7906126007" lon="-2.1628813818"><ele>135.20</ele><time>2017-09-20T11:21:46Z</time></trkpt><trkpt lat="51.7907015327" lon="-2.1628579125"><ele>132.32</ele><time>2017-09-20T11:22:03Z</time></trkpt><trkpt lat="51.7907141894" lon="-2.1628530510"><ele>132.32</ele><time>2017-09-20T11:22:07Z</time></trkpt><trkpt lat="51.7908131797" lon="-2.1628137399"><ele>129.92</ele><time>2017-09-20T11:22:23Z</time></trkpt><trkpt lat="51.7908971664" lon="-2.1627317648"><ele>127.99</ele><time>2017-09-20T11:22:36Z</time></trkpt><trkpt lat="51.7909867689" lon="-2.1626507957"><ele>127.03</ele><time>2017-09-20T11:22:49Z</time></trkpt><trkpt lat="51.7910233140" lon="-2.1626150887"><ele>126.07</ele><time>2017-09-20T11:22:54Z</time></trkpt><trkpt lat="51.7911202926" lon="-2.1625428367"><ele>125.11</ele><time>2017-09-20T11:23:06Z</time></trkpt><trkpt lat="51.7912135832" lon="-2.1624677349"><ele>123.67</ele><time>2017-09-20T11:23:20Z</time></trkpt><trkpt lat="51.7912873439" lon="-2.1624193713"><ele>120.78</ele><time>2017-09-20T11:23:35Z</time></trkpt><trkpt lat="51.7913920339" lon="-2.1623627935"><ele>119.34</ele><time>2017-09-20T11:23:48Z</time></trkpt><trkpt lat="51.7914679740" lon="-2.1623228118"><ele>118.38</ele><time>2017-09-20T11:24:02Z</time></trkpt><trkpt lat="51.7914803792" lon="-2.1623260807"><ele>118.86</ele><time>2017-09-20T11:24:24Z</time></trkpt><trkpt lat="51.7914960533" lon="-2.1623203810"><ele>117.90</ele><time>2017-09-20T11:24:49Z</time></trkpt><trkpt lat="51.7915013339" lon="-2.1623218898"><ele>118.38</ele><time>2017-09-20T11:25:16Z</time></trkpt><trkpt lat="51.7915047705" lon="-2.1623195428"><ele>112.13</ele><time>2017-09-20T11:25:40Z</time></trkpt><trkpt lat="51.7915078718" lon="-2.1623235662"><ele>118.86</ele><time>2017-09-20T11:25:41Z</time></trkpt><trkpt lat="51.7915161699" lon="-2.1623306908"><ele>125.59</ele><time>2017-09-20T11:25:45Z</time></trkpt><trkpt lat="51.7915175110" lon="-2.1623316128"><ele>118.38</ele><time>2017-09-20T11:25:46Z</time></trkpt><trkpt lat="51.7915347777" lon="-2.1623001806"><ele>118.38</ele><time>2017-09-20T11:26:03Z</time></trkpt><trkpt lat="51.7915356159" lon="-2.1622888651"><ele>118.38</ele><time>2017-09-20T11:26:22Z</time></trkpt><trkpt lat="51.7915351968" lon="-2.1622828301"><ele>116.46</ele><time>2017-09-20T11:26:42Z</time></trkpt><trkpt lat="51.7915348615" lon="-2.1622835007"><ele>117.90</ele><time>2017-09-20T11:26:44Z</time></trkpt><trkpt lat="51.7915386334" lon="-2.1622877754"><ele>117.90</ele><time>2017-09-20T11:27:10Z</time></trkpt><trkpt lat="51.7915548943" lon="-2.1623013541"><ele>117.90</ele><time>2017-09-20T11:27:30Z</time></trkpt><trkpt lat="51.7915529665" lon="-2.1622906253"><ele>117.90</ele><time>2017-09-20T11:27:50Z</time></trkpt><trkpt lat="51.7915556487" lon="-2.1623008512"><ele>117.90</ele><time>2017-09-20T11:28:10Z</time></trkpt><trkpt lat="51.7915952113" lon="-2.1622420941"><ele>118.38</ele><time>2017-09-20T11:28:29Z</time></trkpt><trkpt lat="51.7916563991" lon="-2.1621659864"><ele>120.78</ele><time>2017-09-20T11:28:46Z</time></trkpt><trkpt lat="51.7917048465" lon="-2.1621268429"><ele>122.71</ele><time>2017-09-20T11:29:04Z</time></trkpt><trkpt lat="51.7918130569" lon="-2.1620082390"><ele>123.19</ele><time>2017-09-20T11:29:19Z</time></trkpt><trkpt lat="51.7919123825" lon="-2.1619119309"><ele>125.59</ele><time>2017-09-20T11:29:36Z</time></trkpt><trkpt lat="51.7920205928" lon="-2.1618645731"><ele>126.55</ele><time>2017-09-20T11:29:52Z</time></trkpt><trkpt lat="51.7920395359" lon="-2.1618408523"><ele>127.51</ele><time>2017-09-20T11:30:05Z</time></trkpt><trkpt lat="51.7920349259" lon="-2.1618338116"><ele>127.03</ele><time>2017-09-20T11:30:25Z</time></trkpt><trkpt lat="51.7920301482" lon="-2.1618303750"><ele>127.99</ele><time>2017-09-20T11:30:44Z</time></trkpt><trkpt lat="51.7920349259" lon="-2.1618167125"><ele>128.95</ele><time>2017-09-20T11:30:59Z</time></trkpt><trkpt lat="51.7921012267" lon="-2.1616739687"><ele>130.88</ele><time>2017-09-20T11:31:11Z</time></trkpt><trkpt lat="51.7921916675" lon="-2.1615577117"><ele>132.80</ele><time>2017-09-20T11:31:26Z</time></trkpt><trkpt lat="51.7922189925" lon="-2.1614428796"><ele>133.28</ele><time>2017-09-20T11:31:39Z</time></trkpt><trkpt lat="51.7922212556" lon="-2.1614065021"><ele>134.24</ele><time>2017-09-20T11:31:42Z</time></trkpt><trkpt lat="51.7922360916" lon="-2.1612148080"><ele>136.16</ele><time>2017-09-20T11:31:57Z</time></trkpt><trkpt lat="51.7922908254" lon="-2.1610879060"><ele>138.09</ele><time>2017-09-20T11:32:12Z</time></trkpt><trkpt lat="51.7922936752" lon="-2.1610869002"><ele>138.57</ele><time>2017-09-20T11:32:13Z</time></trkpt><trkpt lat="51.7923002131" lon="-2.1610838827"><ele>138.57</ele><time>2017-09-20T11:32:20Z</time></trkpt><trkpt lat="51.7923417874" lon="-2.1610806976"><ele>137.61</ele><time>2017-09-20T11:32:28Z</time></trkpt><trkpt lat="51.7923688609" lon="-2.1610328369"><ele>140.49</ele><time>2017-09-20T11:32:42Z</time></trkpt><trkpt lat="51.7923499178" lon="-2.1609901730"><ele>140.49</ele><time>2017-09-20T11:32:53Z</time></trkpt><trkpt lat="51.7923448887" lon="-2.1609827131"><ele>140.97</ele><time>2017-09-20T11:33:14Z</time></trkpt><trkpt lat="51.7923448887" lon="-2.1609843895"><ele>140.97</ele><time>2017-09-20T11:33:29Z</time></trkpt><trkpt lat="51.7923824396" lon="-2.1609177534"><ele>141.93</ele><time>2017-09-20T11:33:42Z</time></trkpt><trkpt lat="51.7923936713" lon="-2.1608993970"><ele>141.93</ele><time>2017-09-20T11:33:57Z</time></trkpt><trkpt lat="51.7924188171" lon="-2.1607835591"><ele>141.93</ele><time>2017-09-20T11:34:09Z</time></trkpt><trkpt lat="51.7924336530" lon="-2.1605837345"><ele>143.85</ele><time>2017-09-20T11:34:25Z</time></trkpt><trkpt lat="51.7924669292" lon="-2.1604265738"><ele>144.82</ele><time>2017-09-20T11:34:41Z</time></trkpt><trkpt lat="51.7924893927" lon="-2.1602311917"><ele>145.30</ele><time>2017-09-20T11:34:54Z</time></trkpt><trkpt lat="51.7924847826" lon="-2.1601744462"><ele>147.22</ele><time>2017-09-20T11:34:59Z</time></trkpt><trkpt lat="51.7925292905" lon="-2.1600142680"><ele>147.22</ele><time>2017-09-20T11:35:14Z</time></trkpt><trkpt lat="51.7925222497" lon="-2.1599716879"><ele>147.70</ele><time>2017-09-20T11:35:17Z</time></trkpt><trkpt lat="51.7924862914" lon="-2.1597210690"><ele>146.74</ele><time>2017-09-20T11:35:34Z</time></trkpt><trkpt lat="51.7924758140" lon="-2.1596108470"><ele>146.74</ele><time>2017-09-20T11:35:46Z</time></trkpt><trkpt lat="51.7924599722" lon="-2.1594059095"><ele>145.78</ele><time>2017-09-20T11:36:00Z</time></trkpt><trkpt lat="51.7924530152" lon="-2.1593332384"><ele>145.78</ele><time>2017-09-20T11:36:18Z</time></trkpt><trkpt lat="51.7924211640" lon="-2.1591618285"><ele>145.78</ele><time>2017-09-20T11:36:32Z</time></trkpt><trkpt lat="51.7924291268" lon="-2.1589993872"><ele>145.78</ele><time>2017-09-20T11:36:46Z</time></trkpt><trkpt lat="51.7924337368" lon="-2.1589982975"><ele>146.74</ele><time>2017-09-20T11:36:55Z</time></trkpt></trkseg></trk></gpx>